Time,TemperatureF,DewpointF,PressureIn,WindDirection,WindDirectionDegrees,WindSpeedMPH,WindSpeedGustMPH,Humidity,HourlyPrecipIn,Conditions,Clouds,dailyrainin,SoftwareType,DateUTC
2013-02-01 00:00:00,0.8,-6.0,30.04,NNW,338,0.0,0.0,73,0.00,,,0.00,WUHU215HW,2013-02-01 06:00:00,
2013-02-01 00:02:00,1.2,-6.0,30.04,NNW,338,0.0,0.0,73,0.00,,,0.00,WUHU215HW,2013-02-01 06:02:00,
2013-02-01 00:07:00,1.7,-4.7,30.04,NNW,338,0.0,0.0,74,0.00,,,0.00,WUHU215HW,2013-02-01 06:07:00,
2013-02-01 00:11:00,2.1,-4.7,30.04,NNW,338,0.0,0.0,74,0.00,,,0.00,WUHU215HW,2013-02-01 06:11:00,
2013-02-01 00:12:00,2.1,-4.7,30.04,NNW,338,0.0,0.0,74,0.00,,,0.00,WUHU215HW,2013-02-01 06:12:00,
2013-02-01 00:17:00,2.3,-4.1,30.04,NNW,338,0.0,0.0,74,0.00,,,0.00,WUHU215HW,2013-02-01 06:17:00,
2013-02-01 00:20:00,2.4,-4.0,30.04,NNW,338,0.0,0.0,73,0.00,,,0.00,WUHU215HW,2013-02-01 06:20:00,
2013-02-01 00:21:00,2.4,-4.0,30.04,NNW,338,0.0,0.0,73,0.00,,,0.00,WUHU215HW,2013-02-01 06:21:00,
2013-02-01 00:24:00,2.8,-3.9,30.04,NNW,338,0.0,0.0,73,0.00,,,0.00,WUHU215HW,2013-02-01 06:24:00,
2013-02-01 00:25:00,2.8,-3.9,30.04,NNW,338,0.0,0.0,73,0.00,,,0.00,WUHU215HW,2013-02-01 06:25:00,
2013-02-01 00:26:00,2.8,-3.9,30.04,NNW,338,0.0,0.0,73,0.00,,,0.00,WUHU215HW,2013-02-01 06:26:00,
2013-02-01 00:31:00,2.8,-3.9,30.04,NNW,338,0.0,0.0,73,0.00,,,0.00,WUHU215HW,2013-02-01 06:31:00,
2013-02-01 00:36:00,3.0,-3.4,30.04,NNW,338,0.0,0.0,74,0.00,,,0.00,WUHU215HW,2013-02-01 06:36:00,
2013-02-01 00:37:00,3.0,-3.4,30.04,NNW,338,0.0,0.0,74,0.00,,,0.00,WUHU215HW,2013-02-01 06:37:00,
2013-02-01 00:38:00,3.0,-3.4,30.04,NNW,338,0.0,0.0,74,0.00,,,0.00,WUHU215HW,2013-02-01 06:38:00,
2013-02-01 00:40:00,3.0,-3.4,30.04,NNW,338,0.0,0.0,74,0.00,,,0.00,WUHU215HW,2013-02-01 06:40:00,
2013-02-01 00:41:00,3.0,-3.4,30.04,NNW,338,0.0,0.0,74,0.00,,,0.00,WUHU215HW,2013-02-01 06:41:00,
2013-02-01 00:42:00,3.0,-3.4,30.04,NNW,338,0.0,0.0,74,0.00,,,0.00,WUHU215HW,2013-02-01 06:42:00,
2013-02-01 00:47:00,3.0,-3.4,30.04,NNW,338,0.0,0.0,74,0.00,,,0.00,WUHU215HW,2013-02-01 06:47:00,
2013-02-01 00:51:00,3.3,-3.1,30.04,NNW,338,0.0,0.0,74,0.00,,,0.00,WUHU215HW,2013-02-01 06:51:00,
2013-02-01 00:52:00,3.2,-3.5,30.04,NNW,338,0.0,0.0,73,0.00,,,0.00,WUHU215HW,2013-02-01 06:52:00,
2013-02-01 00:57:00,3.3,-3.3,30.04,NNW,338,0.0,0.0,73,0.00,,,0.00,WUHU215HW,2013-02-01 06:57:00,
2013-02-01 00:59:00,3.3,-3.3,30.04,NNW,338,0.0,0.0,73,0.00,,,0.00,WUHU215HW,2013-02-01 06:59:00,
2013-02-01 01:02:00,3.3,-3.3,30.04,NNW,338,0.0,0.0,73,0.00,,,0.00,WUHU215HW,2013-02-01 07:02:00,
2013-02-01 01:04:00,3.3,-3.3,30.04,NNW,338,0.0,0.0,73,0.00,,,0.00,WUHU215HW,2013-02-01 07:04:00,
2013-02-01 01:08:00,3.2,-3.5,30.04,NNW,338,0.0,0.0,73,0.00,,,0.00,WUHU215HW,2013-02-01 07:08:00,
2013-02-01 01:09:00,3.3,-3.5,30.04,NNW,338,0.0,0.0,73,0.00,,,0.00,WUHU215HW,2013-02-01 07:09:00,
2013-02-01 01:13:00,3.3,-3.5,30.04,NNW,338,0.0,0.0,73,0.00,,,0.00,WUHU215HW,2013-02-01 07:13:00,
2013-02-01 01:14:00,3.3,-3.5,30.04,NNW,338,0.0,0.0,73,0.00,,,0.00,WUHU215HW,2013-02-01 07:14:00,
2013-02-01 01:18:00,3.3,-3.3,30.04,NNW,338,0.0,0.0,73,0.00,,,0.00,WUHU215HW,2013-02-01 07:18:00,
2013-02-01 01:21:00,3.3,-3.3,30.04,NNW,338,0.0,0.0,73,0.00,,,0.00,WUHU215HW,2013-02-01 07:21:00,
2013-02-01 01:26:00,3.3,-3.3,30.04,NNW,338,0.0,0.0,73,0.00,,,0.00,WUHU215HW,2013-02-01 07:26:00,
2013-02-01 01:29:00,3.3,-3.3,30.04,NNW,338,0.0,0.0,73,0.00,,,0.00,WUHU215HW,2013-02-01 07:29:00,
2013-02-01 01:31:00,3.5,-3.3,30.04,NNW,338,0.0,0.0,73,0.00,,,0.00,WUHU215HW,2013-02-01 07:31:00,
2013-02-01 01:34:00,3.5,-3.2,30.04,NNW,338,0.0,0.0,73,0.00,,,0.00,WUHU215HW,2013-02-01 07:34:00,
2013-02-01 01:37:00,3.5,-3.2,30.04,NNW,338,0.0,0.0,73,0.00,,,0.00,WUHU215HW,2013-02-01 07:37:00,
2013-02-01 01:39:00,3.7,-3.2,30.04,NNW,338,0.0,0.0,73,0.00,,,0.00,WUHU215HW,2013-02-01 07:39:00,
2013-02-01 01:42:00,3.7,-3.0,30.04,NNW,338,0.0,0.0,73,0.00,,,0.00,WUHU215HW,2013-02-01 07:42:00,
2013-02-01 01:46:00,3.9,-2.8,30.04,NNW,338,0.0,0.0,73,0.00,,,0.00,WUHU215HW,2013-02-01 07:46:00,
2013-02-01 01:47:00,3.9,-2.8,30.04,NNW,338,0.0,0.0,73,0.00,,,0.00,WUHU215HW,2013-02-01 07:47:00,
2013-02-01 01:49:00,3.9,-2.8,30.04,NNW,338,0.0,0.0,73,0.00,,,0.00,WUHU215HW,2013-02-01 07:49:00,
2013-02-01 01:51:00,3.9,-2.8,30.04,NNW,338,0.0,0.0,73,0.00,,,0.00,WUHU215HW,2013-02-01 07:51:00,
2013-02-01 01:52:00,3.9,-2.8,30.04,NNW,338,0.0,0.0,73,0.00,,,0.00,WUHU215HW,2013-02-01 07:52:00,
2013-02-01 01:53:00,3.9,-2.8,30.04,NNW,338,0.0,0.0,73,0.00,,,0.00,WUHU215HW,2013-02-01 07:53:00,
2013-02-01 01:54:00,3.9,-2.8,30.04,NNW,338,0.0,0.0,73,0.00,,,0.00,WUHU215HW,2013-02-01 07:54:00,
2013-02-01 01:56:00,4.1,-2.8,30.04,NNW,338,0.0,0.0,73,0.00,,,0.00,WUHU215HW,2013-02-01 07:56:00,
2013-02-01 01:58:00,4.1,-2.8,30.04,NNW,338,0.0,0.0,73,0.00,,,0.00,WUHU215HW,2013-02-01 07:58:00,
2013-02-01 01:59:00,4.1,-2.7,30.04,NNW,338,0.0,0.0,73,0.00,,,0.00,WUHU215HW,2013-02-01 07:59:00,
2013-02-01 02:01:00,4.2,-2.5,30.04,NNW,338,0.0,0.0,73,0.00,,,0.00,WUHU215HW,2013-02-01 08:01:00,
2013-02-01 02:03:00,4.2,-2.5,30.04,NNW,338,0.0,0.0,73,0.00,,,0.00,WUHU215HW,2013-02-01 08:03:00,
2013-02-01 02:04:00,4.2,-2.5,30.04,NNW,338,0.0,0.0,73,0.00,,,0.00,WUHU215HW,2013-02-01 08:04:00,
2013-02-01 02:05:00,4.2,-2.5,30.04,NNW,338,0.0,0.0,73,0.00,,,0.00,WUHU215HW,2013-02-01 08:05:00,
2013-02-01 02:06:00,4.2,-2.5,30.04,NNW,338,0.0,0.0,73,0.00,,,0.00,WUHU215HW,2013-02-01 08:06:00,
2013-02-01 02:11:00,4.6,-2.2,30.04,NNW,338,0.0,0.0,73,0.00,,,0.00,WUHU215HW,2013-02-01 08:11:00,
2013-02-01 02:12:00,4.6,-2.2,30.04,NNW,338,0.0,0.0,73,0.00,,,0.00,WUHU215HW,2013-02-01 08:12:00,
2013-02-01 02:13:00,4.6,-2.2,30.04,NNW,338,0.0,0.0,73,0.00,,,0.00,WUHU215HW,2013-02-01 08:13:00,
2013-02-01 02:14:00,4.6,-2.2,30.04,NNW,338,0.0,0.0,73,0.00,,,0.00,WUHU215HW,2013-02-01 08:14:00,
2013-02-01 02:16:00,4.6,-2.2,30.04,NNW,338,0.0,0.0,73,0.00,,,0.00,WUHU215HW,2013-02-01 08:16:00,
2013-02-01 02:19:00,4.8,-2.2,30.04,NNW,338,0.0,0.0,73,0.00,,,0.00,WUHU215HW,2013-02-01 08:19:00,
2013-02-01 02:20:00,4.8,-2.2,30.04,NNW,338,0.0,0.0,73,0.00,,,0.00,WUHU215HW,2013-02-01 08:20:00,
2013-02-01 02:22:00,4.8,-2.2,30.04,NNW,338,0.0,0.0,73,0.00,,,0.00,WUHU215HW,2013-02-01 08:22:00,
2013-02-01 02:23:00,4.8,-2.2,30.04,NNW,338,0.0,0.0,73,0.00,,,0.00,WUHU215HW,2013-02-01 08:23:00,
2013-02-01 02:26:00,4.8,-2.0,30.04,NNW,338,0.0,0.0,73,0.00,,,0.00,WUHU215HW,2013-02-01 08:26:00,
2013-02-01 02:27:00,4.8,-2.0,30.04,NNW,338,0.0,0.0,73,0.00,,,0.00,WUHU215HW,2013-02-01 08:27:00,
2013-02-01 02:28:00,4.8,-2.0,30.04,NNW,338,0.0,0.0,73,0.00,,,0.00,WUHU215HW,2013-02-01 08:28:00,
2013-02-01 02:30:00,4.8,-2.0,30.04,NNW,338,0.0,0.0,73,0.00,,,0.00,WUHU215HW,2013-02-01 08:30:00,
2013-02-01 02:32:00,4.8,-2.0,30.04,NNW,338,0.0,0.0,73,0.00,,,0.00,WUHU215HW,2013-02-01 08:32:00,
2013-02-01 02:35:00,4.8,-2.0,30.04,NNW,338,0.0,0.0,73,0.00,,,0.00,WUHU215HW,2013-02-01 08:35:00,
2013-02-01 02:36:00,4.8,-2.0,30.04,NNW,338,0.0,0.0,73,0.00,,,0.00,WUHU215HW,2013-02-01 08:36:00,
2013-02-01 02:37:00,4.8,-2.0,30.04,NNW,338,0.0,0.0,73,0.00,,,0.00,WUHU215HW,2013-02-01 08:37:00,
2013-02-01 02:40:00,4.8,-2.0,30.04,NNW,338,0.0,0.0,73,0.00,,,0.00,WUHU215HW,2013-02-01 08:40:00,
2013-02-01 02:43:00,4.8,-2.0,30.04,NNW,338,0.0,0.0,73,0.00,,,0.00,WUHU215HW,2013-02-01 08:43:00,
2013-02-01 02:44:00,4.8,-2.0,30.04,NNW,338,0.0,0.0,73,0.00,,,0.00,WUHU215HW,2013-02-01 08:44:00,
2013-02-01 02:45:00,4.8,-2.0,30.04,NNW,338,0.0,0.0,73,0.00,,,0.00,WUHU215HW,2013-02-01 08:45:00,
2013-02-01 02:49:00,5.0,-1.8,30.04,NNW,338,0.0,0.0,73,0.00,,,0.00,WUHU215HW,2013-02-01 08:49:00,
2013-02-01 02:50:00,5.0,-1.8,30.04,NNW,338,0.0,0.0,73,0.00,,,0.00,WUHU215HW,2013-02-01 08:50:00,
2013-02-01 02:51:00,5.0,-1.8,30.04,NNW,338,0.0,0.0,73,0.00,,,0.00,WUHU215HW,2013-02-01 08:51:00,
2013-02-01 02:52:00,5.0,-1.8,30.04,NNW,338,0.0,0.0,73,0.00,,,0.00,WUHU215HW,2013-02-01 08:52:00,
2013-02-01 02:57:00,5.0,-1.8,30.04,NNW,338,0.0,0.0,73,0.00,,,0.00,WUHU215HW,2013-02-01 08:57:00,
2013-02-01 02:59:00,5.0,-1.8,30.04,NNW,338,0.0,0.0,73,0.00,,,0.00,WUHU215HW,2013-02-01 08:59:00,
2013-02-01 03:02:00,5.0,-1.8,30.04,NNW,338,0.0,0.0,73,0.00,,,0.00,WUHU215HW,2013-02-01 09:02:00,
2013-02-01 03:03:00,5.0,-1.8,30.04,NNW,338,0.0,0.0,73,0.00,,,0.00,WUHU215HW,2013-02-01 09:03:00,
2013-02-01 03:04:00,5.0,-1.8,30.04,NNW,338,0.0,0.0,73,0.00,,,0.00,WUHU215HW,2013-02-01 09:04:00,
2013-02-01 03:05:00,5.1,-1.6,30.04,NNW,338,0.0,0.0,73,0.00,,,0.00,WUHU215HW,2013-02-01 09:05:00,
2013-02-01 03:07:00,5.1,-1.6,30.04,NNW,338,0.0,0.0,73,0.00,,,0.00,WUHU215HW,2013-02-01 09:07:00,
2013-02-01 03:10:00,5.1,-1.6,30.04,NNW,338,0.0,0.0,73,0.00,,,0.00,WUHU215HW,2013-02-01 09:10:00,
2013-02-01 03:12:00,5.1,-1.6,30.04,NNW,338,0.0,0.0,73,0.00,,,0.00,WUHU215HW,2013-02-01 09:12:00,
2013-02-01 03:15:00,5.1,-1.6,30.04,NNW,338,0.0,0.0,73,0.00,,,0.00,WUHU215HW,2013-02-01 09:15:00,
2013-02-01 03:16:00,5.1,-1.6,30.04,NNW,338,0.0,0.0,73,0.00,,,0.00,WUHU215HW,2013-02-01 09:16:00,
2013-02-01 03:18:00,5.1,-1.6,30.04,NNW,338,0.0,0.0,73,0.00,,,0.00,WUHU215HW,2013-02-01 09:18:00,
2013-02-01 03:21:00,5.1,-1.6,30.04,NNW,338,0.0,0.0,73,0.00,,,0.00,WUHU215HW,2013-02-01 09:21:00,
2013-02-01 03:25:00,5.0,-1.8,30.04,NNW,338,0.0,0.0,73,0.00,,,0.00,WUHU215HW,2013-02-01 09:25:00,
2013-02-01 03:26:00,4.8,-2.0,30.04,NNW,338,0.0,0.0,73,0.00,,,0.00,WUHU215HW,2013-02-01 09:26:00,
2013-02-01 03:28:00,4.8,-2.0,30.04,NNW,338,0.0,0.0,73,0.00,,,0.00,WUHU215HW,2013-02-01 09:28:00,
2013-02-01 03:30:00,4.8,-2.0,30.04,NNW,338,0.0,0.0,73,0.00,,,0.00,WUHU215HW,2013-02-01 09:30:00,
2013-02-01 03:32:00,4.6,-2.2,30.04,NNW,338,0.0,0.0,73,0.00,,,0.00,WUHU215HW,2013-02-01 09:32:00,
2013-02-01 03:33:00,4.4,-2.3,30.04,NNW,338,0.0,0.0,73,0.00,,,0.00,WUHU215HW,2013-02-01 09:33:00,
2013-02-01 03:36:00,4.2,-2.5,30.04,NNW,338,0.0,0.0,73,0.00,,,0.00,WUHU215HW,2013-02-01 09:36:00,
2013-02-01 03:37:00,4.2,-2.5,30.04,NNW,338,0.0,0.0,73,0.00,,,0.00,WUHU215HW,2013-02-01 09:37:00,
2013-02-01 03:38:00,4.2,-2.5,30.04,NNW,338,0.0,0.0,73,0.00,,,0.00,WUHU215HW,2013-02-01 09:38:00,
2013-02-01 03:41:00,3.9,-2.8,30.04,NNW,338,0.0,0.0,73,0.00,,,0.00,WUHU215HW,2013-02-01 09:41:00,
2013-02-01 03:42:00,3.9,-2.8,30.04,NNW,338,0.0,0.0,73,0.00,,,0.00,WUHU215HW,2013-02-01 09:42:00,
2013-02-01 03:43:00,3.9,-2.8,30.04,NNW,338,0.0,0.0,73,0.00,,,0.00,WUHU215HW,2013-02-01 09:43:00,
2013-02-01 03:46:00,3.7,-3.0,30.04,NNW,338,0.0,0.0,73,0.00,,,0.00,WUHU215HW,2013-02-01 09:46:00,
2013-02-01 03:48:00,3.7,-3.0,30.04,NNW,338,0.0,0.0,73,0.00,,,0.00,WUHU215HW,2013-02-01 09:48:00,
2013-02-01 03:51:00,3.5,-3.2,30.04,NNW,338,0.0,0.0,73,0.00,,,0.00,WUHU215HW,2013-02-01 09:51:00,
2013-02-01 03:52:00,3.5,-3.2,30.04,NNW,338,0.0,0.0,73,0.00,,,0.00,WUHU215HW,2013-02-01 09:52:00,
2013-02-01 03:53:00,3.5,-3.2,30.04,NNW,338,0.0,0.0,73,0.00,,,0.00,WUHU215HW,2013-02-01 09:53:00,
2013-02-01 03:57:00,3.3,-3.3,30.04,NNW,338,0.0,0.0,73,0.00,,,0.00,WUHU215HW,2013-02-01 09:57:00,
2013-02-01 04:00:00,3.3,-3.3,30.04,NNW,338,0.0,0.0,73,0.00,,,0.00,WUHU215HW,2013-02-01 10:00:00,
2013-02-01 04:02:00,3.3,-3.3,30.04,NNW,338,0.0,0.0,73,0.00,,,0.00,WUHU215HW,2013-02-01 10:02:00,
2013-02-01 04:03:00,3.3,-3.3,30.04,NNW,338,0.0,0.0,73,0.00,,,0.00,WUHU215HW,2013-02-01 10:03:00,
2013-02-01 04:05:00,3.2,-3.5,30.04,NNW,338,0.0,0.0,73,0.00,,,0.00,WUHU215HW,2013-02-01 10:05:00,
2013-02-01 04:07:00,3.0,-3.5,30.04,NNW,338,0.0,0.0,73,0.00,,,0.00,WUHU215HW,2013-02-01 10:07:00,
2013-02-01 04:08:00,3.0,-3.7,30.04,NNW,338,0.0,0.0,73,0.00,,,0.00,WUHU215HW,2013-02-01 10:08:00,
2013-02-01 04:10:00,3.0,-3.7,30.04,NNW,338,0.0,0.0,73,0.00,,,0.00,WUHU215HW,2013-02-01 10:10:00,
2013-02-01 04:11:00,3.0,-3.7,30.04,NNW,338,0.0,0.0,73,0.00,,,0.00,WUHU215HW,2013-02-01 10:11:00,
2013-02-01 04:13:00,3.0,-3.7,30.04,NNW,338,0.0,0.0,73,0.00,,,0.00,WUHU215HW,2013-02-01 10:13:00,
2013-02-01 04:17:00,3.0,-3.4,30.04,NNW,338,0.0,0.0,74,0.00,,,0.00,WUHU215HW,2013-02-01 10:17:00,
2013-02-01 04:19:00,3.0,-3.4,30.04,NNW,338,0.0,0.0,74,0.00,,,0.00,WUHU215HW,2013-02-01 10:19:00,
2013-02-01 04:22:00,3.0,-3.4,30.04,NNW,338,0.0,0.0,74,0.00,,,0.00,WUHU215HW,2013-02-01 10:22:00,
2013-02-01 04:23:00,3.0,-3.4,30.04,NNW,338,0.0,0.0,74,0.00,,,0.00,WUHU215HW,2013-02-01 10:23:00,
2013-02-01 04:24:00,2.8,-3.4,30.04,NNW,338,0.0,0.0,74,0.00,,,0.00,WUHU215HW,2013-02-01 10:24:00,
2013-02-01 04:25:00,2.8,-3.4,30.04,NNW,338,0.0,0.0,74,0.00,,,0.00,WUHU215HW,2013-02-01 10:25:00,
2013-02-01 04:29:00,2.8,-3.4,30.04,NNW,338,0.0,0.0,74,0.00,,,0.00,WUHU215HW,2013-02-01 10:29:00,
2013-02-01 04:30:00,2.8,-3.4,30.04,NNW,338,0.0,0.0,74,0.00,,,0.00,WUHU215HW,2013-02-01 10:30:00,
2013-02-01 04:35:00,2.8,-3.6,30.04,NNW,338,0.0,0.0,74,0.00,,,0.00,WUHU215HW,2013-02-01 10:35:00,
2013-02-01 04:37:00,2.8,-3.6,30.04,NNW,338,0.0,0.0,74,0.00,,,0.00,WUHU215HW,2013-02-01 10:37:00,
2013-02-01 04:39:00,3.0,-3.4,30.04,NNW,338,0.0,0.0,74,0.00,,,0.00,WUHU215HW,2013-02-01 10:39:00,
2013-02-01 04:41:00,3.0,-3.4,30.04,NNW,338,0.0,0.0,74,0.00,,,0.00,WUHU215HW,2013-02-01 10:41:00,
2013-02-01 04:42:00,3.0,-3.4,30.04,NNW,338,0.0,0.0,74,0.00,,,0.00,WUHU215HW,2013-02-01 10:42:00,
2013-02-01 04:45:00,3.0,-3.4,30.04,NNW,338,0.0,0.0,74,0.00,,,0.00,WUHU215HW,2013-02-01 10:45:00,
2013-02-01 04:49:00,3.0,-3.4,30.04,NNW,338,0.0,0.0,74,0.00,,,0.00,WUHU215HW,2013-02-01 10:49:00,
2013-02-01 04:51:00,3.0,-3.4,30.04,NNW,338,0.0,0.0,74,0.00,,,0.00,WUHU215HW,2013-02-01 10:51:00,
2013-02-01 04:55:00,3.0,-3.4,30.04,NNW,338,0.0,0.0,74,0.00,,,0.00,WUHU215HW,2013-02-01 10:55:00,
2013-02-01 04:58:00,3.0,-3.4,30.04,NNW,338,0.0,0.0,74,0.00,,,0.00,WUHU215HW,2013-02-01 10:58:00,
2013-02-01 05:01:00,3.0,-3.4,30.04,NNW,338,0.0,0.0,75,0.00,,,0.00,WUHU215HW,2013-02-01 11:01:00,
2013-02-01 05:02:00,3.0,-3.4,30.04,NNW,338,0.0,0.0,75,0.00,,,0.00,WUHU215HW,2013-02-01 11:02:00,
2013-02-01 05:07:00,3.0,-3.1,30.04,NNW,338,0.0,0.0,75,0.00,,,0.00,WUHU215HW,2013-02-01 11:07:00,
2013-02-01 05:09:00,3.0,-3.1,30.04,NNW,338,0.0,0.0,75,0.00,,,0.00,WUHU215HW,2013-02-01 11:09:00,
2013-02-01 05:12:00,3.0,-3.1,30.04,NNW,338,0.0,0.0,75,0.00,,,0.00,WUHU215HW,2013-02-01 11:12:00,
2013-02-01 05:17:00,3.0,-3.1,30.04,NNW,338,0.0,0.0,75,0.00,,,0.00,WUHU215HW,2013-02-01 11:17:00,
2013-02-01 05:22:00,3.0,-3.1,30.04,NNW,338,0.0,0.0,75,0.00,,,0.00,WUHU215HW,2013-02-01 11:22:00,
2013-02-01 05:24:00,3.0,-3.1,30.04,NNW,338,0.0,0.0,75,0.00,,,0.00,WUHU215HW,2013-02-01 11:24:00,
2013-02-01 05:27:00,3.0,-3.1,30.04,NNW,338,0.0,0.0,75,0.00,,,0.00,WUHU215HW,2013-02-01 11:27:00,
2013-02-01 05:29:00,3.0,-3.1,30.04,NNW,338,0.0,0.0,75,0.00,,,0.00,WUHU215HW,2013-02-01 11:29:00,
2013-02-01 05:30:00,3.0,-3.3,30.04,NNW,338,0.0,0.0,75,0.00,,,0.00,WUHU215HW,2013-02-01 11:30:00,
2013-02-01 05:34:00,2.8,-3.3,30.04,NNW,338,0.0,0.0,75,0.00,,,0.00,WUHU215HW,2013-02-01 11:34:00,
2013-02-01 05:36:00,2.6,-3.5,30.04,NNW,338,0.0,0.0,75,0.00,,,0.00,WUHU215HW,2013-02-01 11:36:00,
2013-02-01 05:39:00,2.4,-3.7,30.04,NNW,338,0.0,0.0,75,0.00,,,0.00,WUHU215HW,2013-02-01 11:39:00,
2013-02-01 05:42:00,2.4,-3.7,30.04,NNW,338,0.0,0.0,75,0.00,,,0.00,WUHU215HW,2013-02-01 11:42:00,
2013-02-01 05:44:00,2.3,-3.9,30.04,NNW,338,0.0,0.0,75,0.00,,,0.00,WUHU215HW,2013-02-01 11:44:00,
2013-02-01 05:46:00,2.3,-3.9,30.04,NNW,338,0.0,0.0,75,0.00,,,0.00,WUHU215HW,2013-02-01 11:46:00,
2013-02-01 05:50:00,2.1,-4.0,30.04,NNW,338,0.0,0.0,75,0.00,,,0.00,WUHU215HW,2013-02-01 11:50:00,
2013-02-01 05:51:00,2.1,-4.0,30.04,NNW,338,0.0,0.0,75,0.00,,,0.00,WUHU215HW,2013-02-01 11:51:00,
2013-02-01 05:55:00,2.1,-4.0,30.04,NNW,338,0.0,0.0,75,0.00,,,0.00,WUHU215HW,2013-02-01 11:55:00,
2013-02-01 05:56:00,2.1,-4.0,30.04,NNW,338,0.0,0.0,75,0.00,,,0.00,WUHU215HW,2013-02-01 11:56:00,
2013-02-01 06:00:00,1.9,-4.2,30.04,NNW,338,0.0,0.0,75,0.00,,,0.00,WUHU215HW,2013-02-01 12:00:00,
2013-02-01 06:01:00,1.9,-4.2,30.04,NNW,338,0.0,0.0,75,0.00,,,0.00,WUHU215HW,2013-02-01 12:01:00,
2013-02-01 06:05:00,1.9,-4.2,30.04,NNW,338,0.0,0.0,75,0.00,,,0.00,WUHU215HW,2013-02-01 12:05:00,
2013-02-01 06:06:00,1.9,-4.2,30.04,NNW,338,0.0,0.0,75,0.00,,,0.00,WUHU215HW,2013-02-01 12:06:00,
2013-02-01 06:11:00,1.9,-4.0,30.04,NNW,338,0.0,0.0,76,0.00,,,0.00,WUHU215HW,2013-02-01 12:11:00,
2013-02-01 06:17:00,1.9,-4.0,30.04,NNW,338,0.0,0.0,76,0.00,,,0.00,WUHU215HW,2013-02-01 12:17:00,
2013-02-01 06:19:00,1.9,-4.0,30.04,NNW,338,0.0,0.0,76,0.00,,,0.00,WUHU215HW,2013-02-01 12:19:00,
2013-02-01 06:22:00,1.9,-4.0,30.04,NNW,338,0.0,0.0,76,0.00,,,0.00,WUHU215HW,2013-02-01 12:22:00,
2013-02-01 06:26:00,1.9,-4.0,30.04,NNW,338,0.0,0.0,76,0.00,,,0.00,WUHU215HW,2013-02-01 12:26:00,
2013-02-01 06:27:00,1.9,-4.0,30.04,NNW,338,0.0,0.0,76,0.00,,,0.00,WUHU215HW,2013-02-01 12:27:00,
2013-02-01 06:31:00,1.9,-4.0,30.04,NNW,338,0.0,0.0,76,0.00,,,0.00,WUHU215HW,2013-02-01 12:31:00,
2013-02-01 06:34:00,1.9,-4.0,30.04,NNW,338,0.0,0.0,76,0.00,,,0.00,WUHU215HW,2013-02-01 12:34:00,
2013-02-01 06:37:00,1.9,-4.0,30.04,NNW,338,0.0,0.0,76,0.00,,,0.00,WUHU215HW,2013-02-01 12:37:00,
2013-02-01 06:39:00,1.9,-4.0,30.04,NNW,338,0.0,0.0,76,0.00,,,0.00,WUHU215HW,2013-02-01 12:39:00,
2013-02-01 06:44:00,1.9,-4.0,30.04,NNW,338,0.0,0.0,76,0.00,,,0.00,WUHU215HW,2013-02-01 12:44:00,
2013-02-01 06:45:00,1.9,-4.0,30.04,NNW,338,0.0,0.0,76,0.00,,,0.00,WUHU215HW,2013-02-01 12:45:00,
2013-02-01 06:49:00,1.9,-4.0,30.04,NNW,338,0.0,0.0,76,0.00,,,0.00,WUHU215HW,2013-02-01 12:49:00,
2013-02-01 06:51:00,1.9,-4.0,30.04,NNW,338,0.0,0.0,76,0.00,,,0.00,WUHU215HW,2013-02-01 12:51:00,
2013-02-01 06:56:00,1.9,-4.0,30.04,NNW,338,0.0,0.0,76,0.00,,,0.00,WUHU215HW,2013-02-01 12:56:00,
2013-02-01 06:57:00,1.9,-4.0,30.04,NNW,338,0.0,0.0,76,0.00,,,0.00,WUHU215HW,2013-02-01 12:57:00,
2013-02-01 07:01:00,2.1,-3.8,30.04,NNW,338,0.0,0.0,76,0.00,,,0.00,WUHU215HW,2013-02-01 13:01:00,
2013-02-01 07:04:00,1.9,-3.8,30.04,NNW,338,0.0,0.0,76,0.00,,,0.00,WUHU215HW,2013-02-01 13:04:00,
2013-02-01 07:08:00,2.1,-3.8,30.04,NNW,338,0.0,0.0,76,0.00,,,0.00,WUHU215HW,2013-02-01 13:08:00,
2013-02-01 07:09:00,2.1,-3.8,30.04,NNW,338,0.0,0.0,76,0.00,,,0.00,WUHU215HW,2013-02-01 13:09:00,
2013-02-01 07:14:00,2.1,-3.8,30.04,NNW,338,0.0,0.0,76,0.00,,,0.00,WUHU215HW,2013-02-01 13:14:00,
2013-02-01 07:19:00,2.1,-3.8,30.04,NNW,338,0.0,0.0,76,0.00,,,0.00,WUHU215HW,2013-02-01 13:19:00,
2013-02-01 07:20:00,2.1,-3.8,30.04,NNW,338,0.0,0.0,76,0.00,,,0.00,WUHU215HW,2013-02-01 13:20:00,
2013-02-01 07:25:00,2.1,-3.8,30.04,NNW,338,0.0,0.0,76,0.00,,,0.00,WUHU215HW,2013-02-01 13:25:00,
2013-02-01 07:26:00,1.9,-4.0,30.04,NNW,338,0.0,0.0,76,0.00,,,0.00,WUHU215HW,2013-02-01 13:26:00,
2013-02-01 07:30:00,2.1,-4.0,30.04,NNW,338,0.0,0.0,76,0.00,,,0.00,WUHU215HW,2013-02-01 13:30:00,
2013-02-01 07:32:00,2.1,-3.8,30.04,NNW,338,0.0,0.0,76,0.00,,,0.00,WUHU215HW,2013-02-01 13:32:00,
2013-02-01 07:36:00,2.1,-3.8,30.04,NNW,338,0.0,0.0,76,0.00,,,0.00,WUHU215HW,2013-02-01 13:36:00,
2013-02-01 07:37:00,2.1,-3.8,30.04,NNW,338,0.0,0.0,76,0.00,,,0.00,WUHU215HW,2013-02-01 13:37:00,
2013-02-01 07:41:00,2.3,-3.6,30.04,NNW,338,0.0,0.0,76,0.00,,,0.00,WUHU215HW,2013-02-01 13:41:00,
2013-02-01 07:42:00,2.3,-3.6,30.04,NNW,338,0.0,0.0,76,0.00,,,0.00,WUHU215HW,2013-02-01 13:42:00,
2013-02-01 07:46:00,2.3,-3.6,30.04,NNW,338,0.0,0.0,76,0.00,,,0.00,WUHU215HW,2013-02-01 13:46:00,
2013-02-01 07:47:00,2.3,-3.6,30.04,NNW,338,0.0,0.0,76,0.00,,,0.00,WUHU215HW,2013-02-01 13:47:00,
2013-02-01 07:52:00,2.4,-3.4,30.04,NNW,338,0.0,0.0,76,0.00,,,0.00,WUHU215HW,2013-02-01 13:52:00,
2013-02-01 07:53:00,2.4,-3.4,30.04,NNW,338,0.0,0.0,76,0.00,,,0.00,WUHU215HW,2013-02-01 13:53:00,
2013-02-01 07:54:00,2.8,-3.1,30.04,NNW,338,0.0,0.0,76,0.00,,,0.00,WUHU215HW,2013-02-01 13:54:00,
2013-02-01 07:58:00,2.8,-3.1,30.04,South,180,0.0,0.0,76,0.00,,,0.00,WUHU215HW,2013-02-01 13:58:00,
2013-02-01 07:59:00,2.8,-3.1,30.04,South,180,0.0,0.0,76,0.00,,,0.00,WUHU215HW,2013-02-01 13:59:00,
2013-02-01 08:02:00,3.0,-2.9,30.04,SSE,158,0.0,0.0,76,0.00,,,0.00,WUHU215HW,2013-02-01 14:02:00,
2013-02-01 08:03:00,3.0,-2.9,30.04,SSE,158,0.0,0.0,76,0.00,,,0.00,WUHU215HW,2013-02-01 14:03:00,
2013-02-01 08:04:00,3.0,-2.9,30.04,SSE,158,0.0,0.0,76,0.00,,,0.00,WUHU215HW,2013-02-01 14:04:00,
2013-02-01 08:06:00,3.0,-2.9,30.04,SSE,158,0.0,0.0,76,0.00,,,0.00,WUHU215HW,2013-02-01 14:06:00,
2013-02-01 08:09:00,3.3,-2.5,30.04,SE,135,0.0,0.0,76,0.00,,,0.00,WUHU215HW,2013-02-01 14:09:00,
2013-02-01 08:14:00,3.7,-2.2,30.04,SE,135,0.0,0.0,76,0.00,,,0.00,WUHU215HW,2013-02-01 14:14:00,
2013-02-01 08:15:00,3.7,-2.5,30.04,SSE,158,0.0,0.0,75,0.00,,,0.00,WUHU215HW,2013-02-01 14:15:00,
2013-02-01 08:18:00,3.9,-2.3,30.04,SSE,158,0.0,0.0,75,0.00,,,0.00,WUHU215HW,2013-02-01 14:18:00,
2013-02-01 08:20:00,3.9,-2.3,30.04,SSE,158,0.0,0.0,75,0.00,,,0.00,WUHU215HW,2013-02-01 14:20:00,
2013-02-01 08:23:00,3.9,-2.3,30.04,SSW,203,0.0,0.0,75,0.00,,,0.00,WUHU215HW,2013-02-01 14:23:00,
2013-02-01 08:24:00,4.4,-1.8,30.04,SE,135,0.0,0.0,75,0.00,,,0.00,WUHU215HW,2013-02-01 14:24:00,
2013-02-01 08:28:00,4.8,-1.4,30.04,SSE,158,0.0,0.0,75,0.00,,,0.00,WUHU215HW,2013-02-01 14:28:00,
2013-02-01 08:30:00,5.0,-1.3,30.04,ESE,113,0.0,0.0,75,0.00,,,0.00,WUHU215HW,2013-02-01 14:30:00,
2013-02-01 08:32:00,5.0,-0.9,30.04,ESE,113,0.0,0.0,75,0.00,,,0.00,WUHU215HW,2013-02-01 14:32:00,
2013-02-01 08:35:00,5.5,-0.7,30.04,SW,225,0.0,0.0,75,0.00,,,0.00,WUHU215HW,2013-02-01 14:35:00,
2013-02-01 08:39:00,5.7,-0.5,30.04,South,180,0.0,0.0,75,0.00,,,0.00,WUHU215HW,2013-02-01 14:39:00,
2013-02-01 08:40:00,5.7,-0.5,30.04,South,180,0.0,0.0,75,0.00,,,0.00,WUHU215HW,2013-02-01 14:40:00,
2013-02-01 08:45:00,6.0,-0.2,30.04,SSE,158,0.0,0.0,75,0.00,,,0.00,WUHU215HW,2013-02-01 14:45:00,
2013-02-01 08:46:00,6.0,-0.2,30.04,SSE,158,0.0,0.0,75,0.00,,,0.00,WUHU215HW,2013-02-01 14:46:00,
2013-02-01 08:47:00,6.6,-0.2,30.04,SSE,158,0.0,0.0,75,0.00,,,0.00,WUHU215HW,2013-02-01 14:47:00,
2013-02-01 08:51:00,6.6,0.3,30.04,SSE,158,0.0,0.0,75,0.00,,,0.00,WUHU215HW,2013-02-01 14:51:00,
2013-02-01 08:54:00,7.1,0.5,30.04,SSE,158,0.0,0.0,74,0.00,,,0.00,WUHU215HW,2013-02-01 14:54:00,
2013-02-01 08:55:00,7.1,0.5,30.04,SSE,158,0.0,0.0,74,0.00,,,0.00,WUHU215HW,2013-02-01 14:55:00,
2013-02-01 08:56:00,7.3,0.7,30.04,SSE,158,0.0,0.0,74,0.00,,,0.00,WUHU215HW,2013-02-01 14:56:00,
2013-02-01 09:00:00,7.7,0.9,30.04,SE,135,0.0,0.0,74,0.00,,,0.00,WUHU215HW,2013-02-01 15:00:00,
2013-02-01 09:01:00,7.7,1.1,30.04,SE,135,0.0,0.0,74,0.00,,,0.00,WUHU215HW,2013-02-01 15:01:00,
2013-02-01 09:06:00,7.9,1.4,30.04,SE,135,0.0,0.0,74,0.00,,,0.00,WUHU215HW,2013-02-01 15:06:00,
2013-02-01 09:07:00,8.1,1.5,30.04,South,180,0.0,0.0,74,0.00,,,0.00,WUHU215HW,2013-02-01 15:07:00,
2013-02-01 09:12:00,8.3,1.8,30.04,SW,225,0.0,0.0,74,0.00,,,0.00,WUHU215HW,2013-02-01 15:12:00,
2013-02-01 09:15:00,8.5,2.0,30.04,SE,135,0.0,0.0,74,0.00,,,0.00,WUHU215HW,2013-02-01 15:15:00,
2013-02-01 09:17:00,8.4,1.9,30.04,SE,135,0.0,0.0,74,0.00,,,0.00,WUHU215HW,2013-02-01 15:17:00,
2013-02-01 09:20:00,8.8,2.2,30.04,South,180,0.0,0.0,74,0.00,,,0.00,WUHU215HW,2013-02-01 15:20:00,
2013-02-01 09:23:00,8.8,2.3,30.04,SSW,203,0.0,0.0,74,0.00,,,0.00,WUHU215HW,2013-02-01 15:23:00,
2013-02-01 09:26:00,9.2,2.3,30.04,SSE,158,0.0,0.0,73,0.00,,,0.00,WUHU215HW,2013-02-01 15:26:00,
2013-02-01 09:31:00,9.5,2.7,30.04,South,180,0.0,0.0,73,0.00,,,0.00,WUHU215HW,2013-02-01 15:31:00,
2013-02-01 09:32:00,9.5,2.6,30.04,SSE,158,0.0,0.0,73,0.00,,,0.00,WUHU215HW,2013-02-01 15:32:00,
2013-02-01 09:34:00,9.4,2.2,30.04,SSE,158,0.0,0.0,72,0.00,,,0.00,WUHU215HW,2013-02-01 15:34:00,
2013-02-01 09:37:00,9.5,2.4,30.04,South,180,0.0,0.0,72,0.00,,,0.00,WUHU215HW,2013-02-01 15:37:00,
2013-02-01 09:38:00,9.5,2.3,30.04,South,180,0.0,0.0,72,0.00,,,0.00,WUHU215HW,2013-02-01 15:38:00,
2013-02-01 09:39:00,9.6,2.5,30.04,South,180,0.0,0.0,72,0.00,,,0.00,WUHU215HW,2013-02-01 15:39:00,
2013-02-01 09:44:00,9.8,2.6,30.04,South,180,0.0,0.0,72,0.00,,,0.00,WUHU215HW,2013-02-01 15:44:00,
2013-02-01 09:45:00,9.9,2.8,30.04,SSE,158,0.0,0.0,72,0.00,,,0.00,WUHU215HW,2013-02-01 15:45:00,
2013-02-01 09:46:00,9.9,2.7,30.04,SSE,158,0.0,0.0,72,0.00,,,0.00,WUHU215HW,2013-02-01 15:46:00,
2013-02-01 09:50:00,10.2,3.0,30.04,SSE,158,0.0,0.0,72,0.00,,,0.00,WUHU215HW,2013-02-01 15:50:00,
2013-02-01 09:54:00,10.2,3.0,30.04,South,180,0.0,0.0,72,0.00,,,0.00,WUHU215HW,2013-02-01 15:54:00,
2013-02-01 09:57:00,10.6,3.1,30.04,South,180,0.0,0.0,71,0.00,,,0.00,WUHU215HW,2013-02-01 15:57:00,
2013-02-01 10:00:00,10.8,3.6,30.04,SE,135,0.0,0.0,72,0.00,,,0.00,WUHU215HW,2013-02-01 16:00:00,
2013-02-01 10:02:00,11.6,4.1,30.04,SE,135,0.0,0.0,71,0.00,,,0.00,WUHU215HW,2013-02-01 16:02:00,
2013-02-01 10:03:00,11.6,4.0,30.04,SE,135,0.0,0.0,71,0.00,,,0.00,WUHU215HW,2013-02-01 16:03:00,
2013-02-01 10:05:00,12.0,4.4,30.04,SSE,158,0.0,0.0,71,0.00,,,0.00,WUHU215HW,2013-02-01 16:05:00,
2013-02-01 10:09:00,13.1,5.5,30.04,SE,135,0.0,0.0,71,0.00,,,0.00,WUHU215HW,2013-02-01 16:09:00,
2013-02-01 10:10:00,13.1,5.5,30.04,SE,135,0.0,0.0,71,0.00,,,0.00,WUHU215HW,2013-02-01 16:10:00,
2013-02-01 10:14:00,14.1,6.2,30.04,South,180,0.0,0.0,70,0.00,,,0.00,WUHU215HW,2013-02-01 16:14:00,
2013-02-01 10:16:00,14.4,6.5,30.04,SE,135,0.0,0.0,70,0.00,,,0.00,WUHU215HW,2013-02-01 16:16:00,
2013-02-01 10:20:00,15.1,6.8,30.04,SSE,158,0.0,0.0,69,0.00,,,0.00,WUHU215HW,2013-02-01 16:20:00,
2013-02-01 10:21:00,15.1,6.8,30.04,SSE,158,0.0,0.0,69,0.00,,,0.00,WUHU215HW,2013-02-01 16:21:00,
2013-02-01 10:22:00,15.2,6.9,30.04,ESE,113,0.0,0.0,69,0.00,,,0.00,WUHU215HW,2013-02-01 16:22:00,
2013-02-01 10:26:00,15.4,6.8,30.04,South,180,0.0,0.0,68,0.00,,,0.00,WUHU215HW,2013-02-01 16:26:00,
2013-02-01 10:28:00,15.5,6.9,30.04,SSW,203,0.0,0.0,68,0.00,,,0.00,WUHU215HW,2013-02-01 16:28:00,
2013-02-01 10:29:00,15.5,6.8,30.04,SSW,203,0.0,0.0,68,0.00,,,0.00,WUHU215HW,2013-02-01 16:29:00,
2013-02-01 10:32:00,15.5,6.9,30.04,SSE,158,0.0,0.0,68,0.00,,,0.00,WUHU215HW,2013-02-01 16:32:00,
2013-02-01 10:35:00,15.9,6.9,30.04,South,180,0.0,0.0,67,0.00,,,0.00,WUHU215HW,2013-02-01 16:35:00,
2013-02-01 10:37:00,15.8,6.9,30.04,West,270,0.0,0.0,67,0.00,,,0.00,WUHU215HW,2013-02-01 16:37:00,
2013-02-01 10:41:00,16.3,7.0,30.04,SSE,158,0.0,0.0,66,0.00,,,0.00,WUHU215HW,2013-02-01 16:41:00,
2013-02-01 10:42:00,16.2,6.9,30.04,SSE,158,0.0,0.0,66,0.00,,,0.00,WUHU215HW,2013-02-01 16:42:00,
2013-02-01 10:44:00,16.7,7.3,30.04,WSW,248,0.0,0.0,66,0.00,,,0.00,WUHU215HW,2013-02-01 16:44:00,
2013-02-01 10:47:00,17.0,7.6,30.04,SSE,158,0.0,0.0,66,0.00,,,0.00,WUHU215HW,2013-02-01 16:47:00,
2013-02-01 10:49:00,16.9,7.5,30.04,SW,225,0.0,0.0,66,0.00,,,0.00,WUHU215HW,2013-02-01 16:49:00,
2013-02-01 10:54:00,17.9,8.2,30.04,WSW,248,0.0,0.0,65,0.00,,,0.00,WUHU215HW,2013-02-01 16:54:00,
2013-02-01 10:56:00,18.2,8.5,30.04,SSW,203,13.1,13.1,65,0.00,,,0.00,WUHU215HW,2013-02-01 16:56:00,
2013-02-01 10:57:00,18.2,8.5,30.04,SSW,203,13.1,13.1,65,0.00,,,0.00,WUHU215HW,2013-02-01 16:57:00,
2013-02-01 10:59:00,18.5,8.8,30.04,SSW,203,13.1,13.1,65,0.00,,,0.00,WUHU215HW,2013-02-01 16:59:00,
2013-02-01 11:04:00,18.9,8.8,30.04,South,180,0.0,13.1,64,0.00,,,0.00,WUHU215HW,2013-02-01 17:04:00,
2013-02-01 11:06:00,19.0,8.5,30.04,South,180,0.0,13.1,63,0.00,,,0.00,WUHU215HW,2013-02-01 17:06:00,
2013-02-01 11:09:00,19.8,9.3,30.04,SE,135,0.0,0.0,63,0.00,,,0.00,WUHU215HW,2013-02-01 17:09:00,
2013-02-01 11:11:00,20.0,9.4,30.04,SE,135,0.0,0.0,63,0.00,,,0.00,WUHU215HW,2013-02-01 17:11:00,
2013-02-01 11:13:00,20.2,9.7,30.04,SW,225,0.0,0.0,63,0.00,,,0.00,WUHU215HW,2013-02-01 17:13:00,
2013-02-01 11:15:00,20.2,9.3,30.04,SW,225,0.0,0.0,62,0.00,,,0.00,WUHU215HW,2013-02-01 17:15:00,
2013-02-01 11:17:00,20.5,9.2,30.04,SSW,203,0.0,0.0,61,0.00,,,0.00,WUHU215HW,2013-02-01 17:17:00,
2013-02-01 11:22:00,20.6,9.3,30.04,SSW,203,0.0,0.0,61,0.00,,,0.00,WUHU215HW,2013-02-01 17:22:00,
2013-02-01 11:23:00,20.5,9.3,30.04,SSW,203,0.0,0.0,61,0.00,,,0.00,WUHU215HW,2013-02-01 17:23:00,
2013-02-01 11:24:00,20.8,9.5,30.04,WSW,248,0.0,0.0,61,0.00,,,0.00,WUHU215HW,2013-02-01 17:24:00,
2013-02-01 11:29:00,21.1,10.1,30.04,WSW,248,0.0,0.0,62,0.00,,,0.00,WUHU215HW,2013-02-01 17:29:00,
2013-02-01 11:30:00,21.1,10.1,30.04,SW,225,0.0,0.0,62,0.00,,,0.00,WUHU215HW,2013-02-01 17:30:00,
2013-02-01 11:31:00,21.3,10.0,30.04,SW,225,0.0,0.0,61,0.00,,,0.00,WUHU215HW,2013-02-01 17:31:00,
2013-02-01 11:34:00,21.7,10.3,30.04,WSW,248,0.0,0.0,61,0.00,,,0.00,WUHU215HW,2013-02-01 17:34:00,
2013-02-01 11:36:00,21.6,10.3,30.04,WSW,248,0.0,0.0,61,0.00,,,0.00,WUHU215HW,2013-02-01 17:36:00,
2013-02-01 11:39:00,22.1,10.7,30.04,SE,135,0.0,0.0,61,0.00,,,0.00,WUHU215HW,2013-02-01 17:39:00,
2013-02-01 11:42:00,22.0,10.3,30.04,SW,225,0.0,0.0,60,0.00,,,0.00,WUHU215HW,2013-02-01 17:42:00,
2013-02-01 11:44:00,22.0,10.2,30.04,WSW,248,0.0,0.0,60,0.00,,,0.00,WUHU215HW,2013-02-01 17:44:00,
2013-02-01 11:48:00,22.1,10.0,30.04,WSW,248,0.0,0.0,59,0.00,,,0.00,WUHU215HW,2013-02-01 17:48:00,
2013-02-01 11:49:00,22.1,10.0,30.04,WSW,248,0.0,0.0,59,0.00,,,0.00,WUHU215HW,2013-02-01 17:49:00,
2013-02-01 11:50:00,22.1,9.9,30.04,WSW,248,0.0,0.0,59,0.00,,,0.00,WUHU215HW,2013-02-01 17:50:00,
2013-02-01 11:54:00,22.4,10.6,30.04,SE,135,0.0,0.0,60,0.00,,,0.00,WUHU215HW,2013-02-01 17:54:00,
2013-02-01 11:55:00,22.4,10.6,30.04,SE,135,0.0,0.0,60,0.00,,,0.00,WUHU215HW,2013-02-01 17:55:00,
2013-02-01 11:58:00,22.8,11.1,30.04,SSW,203,0.0,0.0,60,0.00,,,0.00,WUHU215HW,2013-02-01 17:58:00,
2013-02-01 11:59:00,22.8,11.1,30.04,SSW,203,0.0,0.0,60,0.00,,,0.00,WUHU215HW,2013-02-01 17:59:00,
2013-02-01 12:00:00,22.8,11.0,30.04,WSW,248,0.0,0.0,60,0.00,,,0.00,WUHU215HW,2013-02-01 18:00:00,
2013-02-01 12:04:00,23.5,11.7,30.04,SW,225,0.0,0.0,60,0.00,,,0.00,WUHU215HW,2013-02-01 18:04:00,
2013-02-01 12:06:00,23.9,12.0,30.04,SW,225,0.0,0.0,60,0.00,,,0.00,WUHU215HW,2013-02-01 18:06:00,
2013-02-01 12:07:00,23.8,11.6,30.04,SW,225,0.0,0.0,59,0.00,,,0.00,WUHU215HW,2013-02-01 18:07:00,
2013-02-01 12:10:00,24.3,12.1,30.04,SW,225,0.0,0.0,59,0.00,,,0.00,WUHU215HW,2013-02-01 18:10:00,
2013-02-01 12:11:00,24.5,12.2,30.04,SE,135,0.0,0.0,59,0.00,,,0.00,WUHU215HW,2013-02-01 18:11:00,
2013-02-01 12:16:00,24.7,12.4,30.04,SSE,158,0.0,0.0,59,0.00,,,0.00,WUHU215HW,2013-02-01 18:16:00,
2013-02-01 12:17:00,24.7,12.4,30.04,SSE,158,0.0,0.0,59,0.00,,,0.00,WUHU215HW,2013-02-01 18:17:00,
2013-02-01 12:21:00,25.5,13.2,30.04,WSW,248,0.0,0.0,59,0.00,,,0.00,WUHU215HW,2013-02-01 18:21:00,
2013-02-01 12:22:00,25.7,13.0,30.04,WSW,248,0.0,0.0,58,0.00,,,0.00,WUHU215HW,2013-02-01 18:22:00,
2013-02-01 12:24:00,25.9,13.2,30.04,South,180,0.0,0.0,58,0.00,,,0.00,WUHU215HW,2013-02-01 18:24:00,
2013-02-01 12:25:00,25.9,13.2,30.04,South,180,0.0,0.0,58,0.00,,,0.00,WUHU215HW,2013-02-01 18:25:00,
2013-02-01 12:27:00,26.0,13.3,30.04,WSW,248,0.0,0.0,58,0.00,,,0.00,WUHU215HW,2013-02-01 18:27:00,
2013-02-01 12:28:00,26.0,12.9,30.04,SSW,203,0.0,0.0,57,0.00,,,0.00,WUHU215HW,2013-02-01 18:28:00,
2013-02-01 12:30:00,26.0,12.9,30.04,WSW,248,0.0,0.0,57,0.00,,,0.00,WUHU215HW,2013-02-01 18:30:00,
2013-02-01 12:32:00,26.4,13.2,30.04,SSW,203,0.0,0.0,57,0.00,,,0.00,WUHU215HW,2013-02-01 18:32:00,
2013-02-01 12:33:00,26.4,13.2,30.04,SSW,203,0.0,0.0,57,0.00,,,0.00,WUHU215HW,2013-02-01 18:33:00,
2013-02-01 12:38:00,26.6,13.0,30.04,South,180,0.0,0.0,56,0.00,,,0.00,WUHU215HW,2013-02-01 18:38:00,
2013-02-01 12:43:00,26.0,12.5,30.04,West,270,0.0,0.0,56,0.00,,,0.00,WUHU215HW,2013-02-01 18:43:00,
2013-02-01 12:44:00,26.0,12.5,30.04,West,270,0.0,0.0,56,0.00,,,0.00,WUHU215HW,2013-02-01 18:44:00,
2013-02-01 12:45:00,25.7,12.2,30.04,West,270,0.0,0.0,56,0.00,,,0.00,WUHU215HW,2013-02-01 18:45:00,
2013-02-01 12:48:00,25.7,12.2,30.04,WSW,248,0.0,0.0,56,0.00,,,0.00,WUHU215HW,2013-02-01 18:48:00,
2013-02-01 12:51:00,25.8,12.2,30.04,WSW,248,0.0,0.0,56,0.00,,,0.00,WUHU215HW,2013-02-01 18:51:00,
2013-02-01 12:52:00,25.8,12.6,30.04,SW,225,0.0,0.0,57,0.00,,,0.00,WUHU215HW,2013-02-01 18:52:00,
2013-02-01 12:53:00,25.8,12.6,30.04,SW,225,0.0,0.0,57,0.00,,,0.00,WUHU215HW,2013-02-01 18:53:00,
2013-02-01 12:58:00,26.3,13.1,30.04,SSW,203,0.0,0.0,57,0.00,,,0.00,WUHU215HW,2013-02-01 18:58:00,
2013-02-01 13:00:00,26.5,13.4,30.04,WSW,248,0.0,0.0,57,0.00,,,0.00,WUHU215HW,2013-02-01 19:00:00,
2013-02-01 13:02:00,26.9,13.7,30.04,WSW,248,0.0,0.0,57,0.00,,,0.00,WUHU215HW,2013-02-01 19:02:00,
2013-02-01 13:07:00,27.5,14.3,30.04,WSW,248,0.0,0.0,57,0.00,,,0.00,WUHU215HW,2013-02-01 19:07:00,
2013-02-01 13:08:00,27.5,14.3,30.04,WSW,248,0.0,0.0,57,0.00,,,0.00,WUHU215HW,2013-02-01 19:08:00,
2013-02-01 13:11:00,27.6,13.9,30.04,SW,225,0.0,0.0,56,0.00,,,0.00,WUHU215HW,2013-02-01 19:11:00,
2013-02-01 13:13:00,27.8,14.1,30.04,SSE,158,0.0,0.0,56,0.00,,,0.00,WUHU215HW,2013-02-01 19:13:00,
2013-02-01 13:14:00,27.8,14.1,30.04,SSE,158,0.0,0.0,56,0.00,,,0.00,WUHU215HW,2013-02-01 19:14:00,
2013-02-01 13:18:00,27.9,13.8,30.04,SSE,158,0.0,0.0,55,0.00,,,0.00,WUHU215HW,2013-02-01 19:18:00,
2013-02-01 13:19:00,27.9,13.8,30.04,West,270,0.0,0.0,55,0.00,,,0.00,WUHU215HW,2013-02-01 19:19:00,
2013-02-01 13:20:00,27.9,13.8,30.04,West,270,0.0,0.0,55,0.00,,,0.00,WUHU215HW,2013-02-01 19:20:00,
2013-02-01 13:22:00,27.9,14.3,30.04,West,270,0.0,0.0,56,0.00,,,0.00,WUHU215HW,2013-02-01 19:22:00,
2013-02-01 13:25:00,28.0,14.3,30.04,SSE,158,0.0,0.0,56,0.00,,,0.00,WUHU215HW,2013-02-01 19:25:00,
2013-02-01 13:26:00,28.0,14.3,30.04,SSW,203,0.0,0.0,56,0.00,,,0.00,WUHU215HW,2013-02-01 19:26:00,
2013-02-01 13:28:00,27.8,14.2,30.04,SW,225,0.0,0.0,56,0.00,,,0.00,WUHU215HW,2013-02-01 19:28:00,
2013-02-01 13:30:00,27.9,14.2,30.04,ENE,68,0.0,0.0,56,0.00,,,0.00,WUHU215HW,2013-02-01 19:30:00,
2013-02-01 13:31:00,27.9,14.2,30.04,ENE,68,0.0,0.0,56,0.00,,,0.00,WUHU215HW,2013-02-01 19:31:00,
2013-02-01 13:33:00,27.9,14.3,30.04,SSE,158,0.0,0.0,56,0.00,,,0.00,WUHU215HW,2013-02-01 19:33:00,
2013-02-01 13:36:00,27.8,14.1,30.04,West,270,0.0,0.0,56,0.00,,,0.00,WUHU215HW,2013-02-01 19:36:00,
2013-02-01 13:37:00,27.8,14.2,30.04,West,270,0.0,0.0,56,0.00,,,0.00,WUHU215HW,2013-02-01 19:37:00,
2013-02-01 13:40:00,28.1,14.4,30.04,SSW,203,0.0,0.0,56,0.00,,,0.00,WUHU215HW,2013-02-01 19:40:00,
2013-02-01 13:41:00,28.3,15.0,30.04,SW,225,0.0,0.0,57,0.00,,,0.00,WUHU215HW,2013-02-01 19:41:00,
2013-02-01 13:43:00,28.6,14.9,30.04,SSW,203,0.0,0.0,56,0.00,,,0.00,WUHU215HW,2013-02-01 19:43:00,
2013-02-01 13:47:00,28.8,15.1,30.04,SE,135,0.0,0.0,56,0.00,,,0.00,WUHU215HW,2013-02-01 19:47:00,
2013-02-01 13:48:00,28.8,15.1,30.04,SE,135,0.0,0.0,56,0.00,,,0.00,WUHU215HW,2013-02-01 19:48:00,
2013-02-01 13:53:00,28.9,14.8,30.04,SSE,158,0.0,0.0,55,0.00,,,0.00,WUHU215HW,2013-02-01 19:53:00,
2013-02-01 13:54:00,28.7,14.5,30.04,West,270,0.0,0.0,55,0.00,,,0.00,WUHU215HW,2013-02-01 19:54:00,
2013-02-01 13:59:00,28.4,14.7,30.04,SSE,158,0.0,0.0,56,0.00,,,0.00,WUHU215HW,2013-02-01 19:59:00,
2013-02-01 14:00:00,28.2,14.6,30.04,SE,135,0.0,0.0,56,0.00,,,0.00,WUHU215HW,2013-02-01 20:00:00,
2013-02-01 14:02:00,28.3,14.6,30.04,SSE,158,0.0,0.0,56,0.00,,,0.00,WUHU215HW,2013-02-01 20:02:00,
2013-02-01 14:05:00,28.3,14.6,30.04,SW,225,0.0,0.0,56,0.00,,,0.00,WUHU215HW,2013-02-01 20:05:00,
2013-02-01 14:07:00,28.4,14.7,30.04,WSW,248,0.0,0.0,56,0.00,,,0.00,WUHU215HW,2013-02-01 20:07:00,
2013-02-01 14:09:00,28.4,14.7,30.04,WSW,248,0.0,0.0,56,0.00,,,0.00,WUHU215HW,2013-02-01 20:09:00,
2013-02-01 14:11:00,28.5,14.8,30.04,WSW,248,0.0,0.0,56,0.00,,,0.00,WUHU215HW,2013-02-01 20:11:00,
2013-02-01 14:13:00,28.7,14.9,30.04,South,180,0.0,0.0,56,0.00,,,0.00,WUHU215HW,2013-02-01 20:13:00,
2013-02-01 14:16:00,28.7,14.9,30.04,SW,225,0.0,0.0,56,0.00,,,0.00,WUHU215HW,2013-02-01 20:16:00,
2013-02-01 14:18:00,28.7,15.0,30.04,WSW,248,0.0,0.0,56,0.00,,,0.00,WUHU215HW,2013-02-01 20:18:00,
2013-02-01 14:19:00,28.6,14.9,30.04,South,180,0.0,0.0,56,0.00,,,0.00,WUHU215HW,2013-02-01 20:19:00,
2013-02-01 14:24:00,28.7,15.0,30.04,SW,225,0.0,0.0,56,0.00,,,0.00,WUHU215HW,2013-02-01 20:24:00,
2013-02-01 14:27:00,28.9,15.1,30.04,SW,225,0.0,0.0,56,0.00,,,0.00,WUHU215HW,2013-02-01 20:27:00,
2013-02-01 14:28:00,28.9,15.6,30.04,WSW,248,0.0,0.0,57,0.00,,,0.00,WUHU215HW,2013-02-01 20:28:00,
2013-02-01 14:29:00,28.9,15.6,30.04,WSW,248,0.0,0.0,57,0.00,,,0.00,WUHU215HW,2013-02-01 20:29:00,
2013-02-01 14:30:00,29.0,15.7,30.04,SW,225,0.0,0.0,57,0.00,,,0.00,WUHU215HW,2013-02-01 20:30:00,
2013-02-01 14:35:00,29.4,16.0,30.04,SW,225,0.0,0.0,57,0.00,,,0.00,WUHU215HW,2013-02-01 20:35:00,
2013-02-01 14:36:00,29.7,16.4,30.04,SSE,158,0.0,0.0,57,0.00,,,0.00,WUHU215HW,2013-02-01 20:36:00,
2013-02-01 14:37:00,29.8,16.4,30.04,SSE,158,0.0,0.0,57,0.00,,,0.00,WUHU215HW,2013-02-01 20:37:00,
2013-02-01 14:42:00,30.2,16.8,30.04,SW,225,0.0,0.0,57,0.00,,,0.00,WUHU215HW,2013-02-01 20:42:00,
2013-02-01 14:46:00,30.5,17.1,30.04,NW,315,0.0,0.0,57,0.00,,,0.00,WUHU215HW,2013-02-01 20:46:00,
2013-02-01 14:47:00,30.9,17.4,30.04,NW,315,0.0,0.0,57,0.00,,,0.00,WUHU215HW,2013-02-01 20:47:00,
2013-02-01 14:48:00,30.9,17.5,30.04,NW,315,0.0,0.0,57,0.00,,,0.00,WUHU215HW,2013-02-01 20:48:00,
2013-02-01 14:49:00,31.0,17.5,30.04,WSW,248,0.0,0.0,57,0.00,,,0.00,WUHU215HW,2013-02-01 20:49:00,
2013-02-01 14:52:00,31.1,17.2,30.04,WNW,293,0.0,0.0,56,0.00,,,0.00,WUHU215HW,2013-02-01 20:52:00,
2013-02-01 14:54:00,31.4,17.5,30.04,WSW,248,0.0,0.0,56,0.00,,,0.00,WUHU215HW,2013-02-01 20:54:00,
2013-02-01 14:57:00,31.3,17.4,30.04,WSW,248,0.0,0.0,56,0.00,,,0.00,WUHU215HW,2013-02-01 20:57:00,
2013-02-01 14:58:00,31.3,17.5,30.04,WSW,248,0.0,0.0,56,0.00,,,0.00,WUHU215HW,2013-02-01 20:58:00,
2013-02-01 14:59:00,31.4,17.5,30.04,WSW,248,0.0,0.0,56,0.00,,,0.00,WUHU215HW,2013-02-01 20:59:00,
2013-02-01 15:01:00,31.4,17.5,30.04,West,270,0.0,0.0,56,0.00,,,0.00,WUHU215HW,2013-02-01 21:01:00,
2013-02-01 15:03:00,31.3,17.4,30.04,SSW,203,0.0,0.0,56,0.00,,,0.00,WUHU215HW,2013-02-01 21:03:00,
2013-02-01 15:05:00,31.2,17.3,30.04,SSW,203,0.0,0.0,56,0.00,,,0.00,WUHU215HW,2013-02-01 21:05:00,
2013-02-01 15:06:00,31.2,17.3,30.04,SSW,203,0.0,0.0,56,0.00,,,0.00,WUHU215HW,2013-02-01 21:06:00,
2013-02-01 15:11:00,30.7,16.9,30.04,SW,225,0.0,0.0,56,0.00,,,0.00,WUHU215HW,2013-02-01 21:11:00,
2013-02-01 15:12:00,30.8,16.9,30.04,SW,225,0.0,0.0,56,0.00,,,0.00,WUHU215HW,2013-02-01 21:12:00,
2013-02-01 15:16:00,30.4,17.0,30.04,SSW,203,0.0,0.0,57,0.00,,,0.00,WUHU215HW,2013-02-01 21:16:00,
2013-02-01 15:17:00,30.4,17.0,30.04,WSW,248,0.0,0.0,57,0.00,,,0.00,WUHU215HW,2013-02-01 21:17:00,
2013-02-01 15:22:00,30.6,17.2,30.04,SE,135,0.0,0.0,57,0.00,,,0.00,WUHU215HW,2013-02-01 21:22:00,
2013-02-01 15:23:00,30.6,17.2,30.04,South,180,0.0,0.0,57,0.00,,,0.00,WUHU215HW,2013-02-01 21:23:00,
2013-02-01 15:28:00,30.9,17.8,30.04,SW,225,0.0,0.0,58,0.00,,,0.00,WUHU215HW,2013-02-01 21:28:00,
2013-02-01 15:30:00,31.0,17.9,30.04,West,270,0.0,0.0,58,0.00,,,0.00,WUHU215HW,2013-02-01 21:30:00,
2013-02-01 15:34:00,31.2,18.1,30.04,South,180,0.0,0.0,58,0.00,,,0.00,WUHU215HW,2013-02-01 21:34:00,
2013-02-01 15:36:00,31.4,18.3,30.04,West,270,0.0,0.0,58,0.00,,,0.00,WUHU215HW,2013-02-01 21:36:00,
2013-02-01 15:40:00,31.6,18.5,30.04,SE,135,0.0,0.0,58,0.00,,,0.00,WUHU215HW,2013-02-01 21:40:00,
2013-02-01 15:41:00,31.6,18.5,30.04,SE,135,0.0,0.0,58,0.00,,,0.00,WUHU215HW,2013-02-01 21:41:00,
2013-02-01 15:43:00,31.6,18.5,30.04,SW,225,0.0,0.0,58,0.00,,,0.00,WUHU215HW,2013-02-01 21:43:00,
2013-02-01 15:46:00,31.9,18.8,30.04,WSW,248,0.0,0.0,58,0.00,,,0.00,WUHU215HW,2013-02-01 21:46:00,
2013-02-01 15:47:00,31.6,18.5,30.04,SW,225,0.0,0.0,58,0.00,,,0.00,WUHU215HW,2013-02-01 21:47:00,
2013-02-01 15:49:00,31.7,18.6,30.04,SW,225,0.0,0.0,58,0.00,,,0.00,WUHU215HW,2013-02-01 21:49:00,
2013-02-01 15:50:00,31.8,18.7,30.04,SW,225,0.0,0.0,58,0.00,,,0.00,WUHU215HW,2013-02-01 21:50:00,
2013-02-01 15:53:00,31.7,18.6,30.04,WSW,248,0.0,0.0,58,0.00,,,0.00,WUHU215HW,2013-02-01 21:53:00,
2013-02-01 15:55:00,31.6,18.6,30.04,SW,225,0.0,0.0,58,0.00,,,0.00,WUHU215HW,2013-02-01 21:55:00,
2013-02-01 15:58:00,31.3,18.2,30.04,SE,135,0.0,0.0,58,0.00,,,0.00,WUHU215HW,2013-02-01 21:58:00,
2013-02-01 15:59:00,31.3,18.3,30.04,SE,135,0.0,0.0,58,0.00,,,0.00,WUHU215HW,2013-02-01 21:59:00,
2013-02-01 16:00:00,31.4,18.3,30.04,SW,225,0.0,0.0,58,0.00,,,0.00,WUHU215HW,2013-02-01 22:00:00,
2013-02-01 16:03:00,31.3,18.3,30.04,SW,225,0.0,0.0,58,0.00,,,0.00,WUHU215HW,2013-02-01 22:03:00,
2013-02-01 16:05:00,31.0,18.0,30.04,SW,225,0.0,0.0,58,0.00,,,0.00,WUHU215HW,2013-02-01 22:05:00,
2013-02-01 16:06:00,31.1,18.1,30.04,SSW,203,0.0,0.0,58,0.00,,,0.00,WUHU215HW,2013-02-01 22:06:00,
2013-02-01 16:10:00,31.0,18.4,30.04,South,180,0.0,0.0,59,0.00,,,0.00,WUHU215HW,2013-02-01 22:10:00,
2013-02-01 16:11:00,30.8,18.2,30.04,SW,225,0.0,0.0,59,0.00,,,0.00,WUHU215HW,2013-02-01 22:11:00,
2013-02-01 16:15:00,30.3,17.8,30.04,West,270,0.0,0.0,59,0.00,,,0.00,WUHU215HW,2013-02-01 22:15:00,
2013-02-01 16:16:00,30.3,17.7,30.04,West,270,0.0,0.0,59,0.00,,,0.00,WUHU215HW,2013-02-01 22:16:00,
2013-02-01 16:18:00,30.2,17.6,30.04,WSW,248,0.0,0.0,59,0.00,,,0.00,WUHU215HW,2013-02-01 22:18:00,
2013-02-01 16:21:00,29.3,17.2,30.04,SSW,203,0.0,0.0,60,0.00,,,0.00,WUHU215HW,2013-02-01 22:21:00,
2013-02-01 16:24:00,29.2,17.1,30.04,WSW,248,0.0,0.0,60,0.00,,,0.00,WUHU215HW,2013-02-01 22:24:00,
2013-02-01 16:26:00,28.9,16.8,30.04,WSW,248,0.0,0.0,60,0.00,,,0.00,WUHU215HW,2013-02-01 22:26:00,
2013-02-01 16:29:00,28.5,16.4,30.04,South,180,0.0,0.0,60,0.00,,,0.00,WUHU215HW,2013-02-01 22:29:00,
2013-02-01 16:30:00,28.3,16.6,30.04,WSW,248,0.0,0.0,61,0.00,,,0.00,WUHU215HW,2013-02-01 22:30:00,
2013-02-01 16:31:00,28.2,16.6,30.04,WSW,248,0.0,0.0,61,0.00,,,0.00,WUHU215HW,2013-02-01 22:31:00,
2013-02-01 16:33:00,28.0,16.4,30.04,WSW,248,0.0,0.0,61,0.00,,,0.00,WUHU215HW,2013-02-01 22:33:00,
2013-02-01 16:34:00,28.0,16.3,30.04,WSW,248,0.0,0.0,61,0.00,,,0.00,WUHU215HW,2013-02-01 22:34:00,
2013-02-01 16:35:00,28.0,16.3,30.04,WSW,248,0.0,0.0,61,0.00,,,0.00,WUHU215HW,2013-02-01 22:35:00,
2013-02-01 16:38:00,27.8,16.5,30.04,SW,225,0.0,0.0,62,0.00,,,0.00,WUHU215HW,2013-02-01 22:38:00,
2013-02-01 16:40:00,27.7,16.4,30.04,SW,225,0.0,0.0,62,0.00,,,0.00,WUHU215HW,2013-02-01 22:40:00,
2013-02-01 16:42:00,27.6,16.4,30.04,WSW,248,0.0,0.0,62,0.00,,,0.00,WUHU215HW,2013-02-01 22:42:00,
2013-02-01 16:43:00,27.6,16.3,30.04,WSW,248,0.0,0.0,62,0.00,,,0.00,WUHU215HW,2013-02-01 22:43:00,
2013-02-01 16:48:00,27.5,16.2,30.04,SW,225,0.0,0.0,62,0.00,,,0.00,WUHU215HW,2013-02-01 22:48:00,
2013-02-01 16:50:00,27.3,16.0,30.04,SW,225,0.0,0.0,62,0.00,,,0.00,WUHU215HW,2013-02-01 22:50:00,
2013-02-01 16:53:00,27.2,15.9,30.04,WSW,248,0.0,0.0,62,0.00,,,0.00,WUHU215HW,2013-02-01 22:53:00,
2013-02-01 16:55:00,26.9,15.7,30.04,WSW,248,0.0,0.0,62,0.00,,,0.00,WUHU215HW,2013-02-01 22:55:00,
2013-02-01 16:57:00,26.8,16.0,30.04,SE,135,0.0,0.0,63,0.00,,,0.00,WUHU215HW,2013-02-01 22:57:00,
2013-02-01 17:00:00,26.5,15.7,30.04,SE,135,0.0,0.0,63,0.00,,,0.00,WUHU215HW,2013-02-01 23:00:00,
2013-02-01 17:01:00,26.5,15.7,30.04,SE,135,0.0,0.0,63,0.00,,,0.00,WUHU215HW,2013-02-01 23:01:00,
2013-02-01 17:02:00,26.3,15.4,30.04,NW,315,0.0,0.0,63,0.00,,,0.00,WUHU215HW,2013-02-01 23:02:00,
2013-02-01 17:05:00,26.2,15.4,30.04,South,180,0.0,0.0,63,0.00,,,0.00,WUHU215HW,2013-02-01 23:05:00,
2013-02-01 17:06:00,26.0,15.1,30.04,South,180,0.0,0.0,63,0.00,,,0.00,WUHU215HW,2013-02-01 23:06:00,
2013-02-01 17:09:00,25.8,15.0,30.04,WSW,248,0.0,0.0,63,0.00,,,0.00,WUHU215HW,2013-02-01 23:09:00,
2013-02-01 17:10:00,25.8,14.9,30.04,WSW,248,0.0,0.0,63,0.00,,,0.00,WUHU215HW,2013-02-01 23:10:00,
2013-02-01 17:11:00,25.5,15.1,30.04,SSW,203,0.0,0.0,64,0.00,,,0.00,WUHU215HW,2013-02-01 23:11:00,
2013-02-01 17:16:00,25.4,15.0,30.04,South,180,0.0,0.0,64,0.00,,,0.00,WUHU215HW,2013-02-01 23:16:00,
2013-02-01 17:17:00,25.2,15.1,30.04,SSW,203,0.0,0.0,65,0.00,,,0.00,WUHU215HW,2013-02-01 23:17:00,
2013-02-01 17:20:00,25.2,15.1,30.04,South,180,0.0,0.0,65,0.00,,,0.00,WUHU215HW,2013-02-01 23:20:00,
2013-02-01 17:21:00,24.7,14.7,30.04,SSW,203,0.0,0.0,65,0.00,,,0.00,WUHU215HW,2013-02-01 23:21:00,
2013-02-01 17:22:00,24.7,14.7,30.04,SSW,203,0.0,0.0,65,0.00,,,0.00,WUHU215HW,2013-02-01 23:22:00,
2013-02-01 17:26:00,24.7,14.6,30.04,South,180,0.0,0.0,65,0.00,,,0.00,WUHU215HW,2013-02-01 23:26:00,
2013-02-01 17:28:00,24.5,14.5,30.04,SSE,158,0.0,0.0,65,0.00,,,0.00,WUHU215HW,2013-02-01 23:28:00,
2013-02-01 17:29:00,24.5,14.5,30.04,SSE,158,0.0,0.0,65,0.00,,,0.00,WUHU215HW,2013-02-01 23:29:00,
2013-02-01 17:30:00,24.3,14.3,30.04,South,180,0.0,0.0,65,0.00,,,0.00,WUHU215HW,2013-02-01 23:30:00,
2013-02-01 17:33:00,24.3,14.3,30.04,South,180,0.0,0.0,65,0.00,,,0.00,WUHU215HW,2013-02-01 23:33:00,
2013-02-01 17:35:00,24.3,14.3,30.04,South,180,0.0,0.0,65,0.00,,,0.00,WUHU215HW,2013-02-01 23:35:00,
2013-02-01 17:39:00,24.1,14.4,30.04,SSW,203,0.0,0.0,66,0.00,,,0.00,WUHU215HW,2013-02-01 23:39:00,
2013-02-01 17:40:00,24.1,14.4,30.04,SSW,203,0.0,0.0,66,0.00,,,0.00,WUHU215HW,2013-02-01 23:40:00,
2013-02-01 17:44:00,24.1,14.5,30.04,SSW,203,0.0,0.0,66,0.00,,,0.00,WUHU215HW,2013-02-01 23:44:00,
2013-02-01 17:45:00,23.9,14.3,30.04,SW,225,0.0,0.0,66,0.00,,,0.00,WUHU215HW,2013-02-01 23:45:00,
2013-02-01 17:46:00,23.9,14.3,30.04,SW,225,0.0,0.0,66,0.00,,,0.00,WUHU215HW,2013-02-01 23:46:00,
2013-02-01 17:51:00,23.7,14.4,30.04,SW,225,0.0,0.0,67,0.00,,,0.00,WUHU215HW,2013-02-01 23:51:00,
2013-02-01 17:53:00,23.8,14.5,30.04,SW,225,0.0,0.0,67,0.00,,,0.00,WUHU215HW,2013-02-01 23:53:00,
2013-02-01 17:54:00,23.8,14.5,30.04,SW,225,0.0,0.0,67,0.00,,,0.00,WUHU215HW,2013-02-01 23:54:00,
2013-02-01 17:56:00,23.8,14.5,30.04,SW,225,0.0,0.0,67,0.00,,,0.00,WUHU215HW,2013-02-01 23:56:00,
2013-02-01 17:57:00,23.9,14.5,30.04,SW,225,0.0,0.0,67,0.00,,,0.00,WUHU215HW,2013-02-01 23:57:00,
2013-02-01 17:59:00,23.9,14.6,30.04,South,180,0.0,0.0,67,0.00,,,0.00,WUHU215HW,2013-02-01 23:59:00,
2013-02-01 18:01:00,23.6,14.3,30.04,SSW,203,0.0,0.0,67,0.00,,,0.00,WUHU215HW,2013-02-02 00:01:00,
2013-02-01 18:02:00,23.7,14.4,30.04,SSW,203,0.0,0.0,67,0.00,,,0.00,WUHU215HW,2013-02-02 00:02:00,
2013-02-01 18:03:00,23.7,14.4,30.04,SSW,203,0.0,0.0,67,0.00,,,0.00,WUHU215HW,2013-02-02 00:03:00,
2013-02-01 18:05:00,23.7,14.4,30.04,WSW,248,0.0,0.0,67,0.00,,,0.00,WUHU215HW,2013-02-02 00:05:00,
2013-02-01 18:07:00,23.8,14.5,30.04,WSW,248,0.0,0.0,67,0.00,,,0.00,WUHU215HW,2013-02-02 00:07:00,
2013-02-01 18:08:00,23.8,14.8,30.04,WSW,248,0.0,0.0,68,0.00,,,0.00,WUHU215HW,2013-02-02 00:08:00,
2013-02-01 18:10:00,23.8,14.9,30.04,WSW,248,0.0,0.0,68,0.00,,,0.00,WUHU215HW,2013-02-02 00:10:00,
2013-02-01 18:11:00,23.9,14.9,30.04,WSW,248,0.0,0.0,68,0.00,,,0.00,WUHU215HW,2013-02-02 00:11:00,
2013-02-01 18:15:00,23.8,14.8,30.04,SSW,203,0.0,0.0,68,0.00,,,0.00,WUHU215HW,2013-02-02 00:15:00,
2013-02-01 18:16:00,23.8,14.9,30.04,SSW,203,0.0,0.0,68,0.00,,,0.00,WUHU215HW,2013-02-02 00:16:00,
2013-02-01 18:18:00,23.9,14.9,30.04,SSW,203,0.0,0.0,68,0.00,,,0.00,WUHU215HW,2013-02-02 00:18:00,
2013-02-01 18:21:00,24.0,15.0,30.04,WNW,293,0.0,0.0,68,0.00,,,0.00,WUHU215HW,2013-02-02 00:21:00,
2013-02-01 18:23:00,24.1,15.1,30.04,SW,225,0.0,0.0,68,0.00,,,0.00,WUHU215HW,2013-02-02 00:23:00,
2013-02-01 18:26:00,24.2,15.2,30.04,SW,225,0.0,0.0,68,0.00,,,0.00,WUHU215HW,2013-02-02 00:26:00,
2013-02-01 18:27:00,24.2,15.2,30.04,SW,225,0.0,0.0,68,0.00,,,0.00,WUHU215HW,2013-02-02 00:27:00,
2013-02-01 18:30:00,24.1,15.2,30.04,WSW,248,0.0,0.0,68,0.00,,,0.00,WUHU215HW,2013-02-02 00:30:00,
2013-02-01 18:31:00,24.2,15.2,30.04,WSW,248,0.0,0.0,68,0.00,,,0.00,WUHU215HW,2013-02-02 00:31:00,
2013-02-01 18:32:00,24.2,15.2,30.04,SW,225,0.0,0.0,68,0.00,,,0.00,WUHU215HW,2013-02-02 00:32:00,
2013-02-01 18:36:00,24.2,15.2,30.04,SSW,203,0.0,0.0,68,0.00,,,0.00,WUHU215HW,2013-02-02 00:36:00,
2013-02-01 18:37:00,24.2,15.3,30.04,SSW,203,0.0,0.0,68,0.00,,,0.00,WUHU215HW,2013-02-02 00:37:00,
2013-02-01 18:38:00,24.3,15.3,30.04,SSW,203,0.0,0.0,68,0.00,,,0.00,WUHU215HW,2013-02-02 00:38:00,
2013-02-01 18:40:00,24.4,15.4,30.04,SSW,203,0.0,0.0,68,0.00,,,0.00,WUHU215HW,2013-02-02 00:40:00,
2013-02-01 18:43:00,24.5,15.5,30.04,SW,225,0.0,0.0,68,0.00,,,0.00,WUHU215HW,2013-02-02 00:43:00,
2013-02-01 18:44:00,24.6,15.6,30.04,SW,225,0.0,0.0,68,0.00,,,0.00,WUHU215HW,2013-02-02 00:44:00,
2013-02-01 18:46:00,24.7,15.7,30.04,WSW,248,0.0,0.0,68,0.00,,,0.00,WUHU215HW,2013-02-02 00:46:00,
2013-02-01 18:47:00,24.7,15.7,30.04,South,180,0.0,0.0,68,0.00,,,0.00,WUHU215HW,2013-02-02 00:47:00,
2013-02-01 18:49:00,24.8,15.8,30.04,SW,225,0.0,0.0,68,0.00,,,0.00,WUHU215HW,2013-02-02 00:49:00,
2013-02-01 18:51:00,24.9,15.9,30.04,SW,225,0.0,0.0,68,0.00,,,0.00,WUHU215HW,2013-02-02 00:51:00,
2013-02-01 18:55:00,25.1,16.4,30.04,SSW,203,0.0,0.0,69,0.00,,,0.00,WUHU215HW,2013-02-02 00:55:00,
2013-02-01 18:56:00,25.1,16.4,30.04,SW,225,0.0,0.0,69,0.00,,,0.00,WUHU215HW,2013-02-02 00:56:00,
2013-02-01 18:57:00,25.1,16.4,30.04,SW,225,0.0,0.0,69,0.00,,,0.00,WUHU215HW,2013-02-02 00:57:00,
2013-02-01 19:00:00,25.3,16.6,30.04,South,180,0.0,0.0,69,0.00,,,0.00,WUHU215HW,2013-02-02 01:00:00,
2013-02-01 19:02:00,25.4,16.7,30.04,SW,225,0.0,0.0,69,0.00,,,0.00,WUHU215HW,2013-02-02 01:02:00,
2013-02-01 19:03:00,25.4,16.7,30.04,SW,225,0.0,0.0,69,0.00,,,0.00,WUHU215HW,2013-02-02 01:03:00,
2013-02-01 19:05:00,25.3,16.6,30.04,WSW,248,0.0,0.0,69,0.00,,,0.00,WUHU215HW,2013-02-02 01:05:00,
2013-02-01 19:06:00,25.4,16.7,30.04,WSW,248,0.0,0.0,69,0.00,,,0.00,WUHU215HW,2013-02-02 01:06:00,
2013-02-01 19:07:00,25.4,16.7,30.04,WSW,248,0.0,0.0,69,0.00,,,0.00,WUHU215HW,2013-02-02 01:07:00,
2013-02-01 19:08:00,25.5,16.8,30.04,SSE,158,0.0,0.0,69,0.00,,,0.00,WUHU215HW,2013-02-02 01:08:00,
2013-02-01 19:13:00,25.5,16.7,30.04,SW,225,0.0,0.0,69,0.00,,,0.00,WUHU215HW,2013-02-02 01:13:00,
2013-02-01 19:14:00,25.5,16.7,30.04,SW,225,0.0,0.0,69,0.00,,,0.00,WUHU215HW,2013-02-02 01:14:00,
2013-02-01 19:17:00,25.5,16.7,30.04,SSW,203,0.0,0.0,69,0.00,,,0.00,WUHU215HW,2013-02-02 01:17:00,
2013-02-01 19:19:00,25.3,16.8,30.04,SW,225,0.0,0.0,70,0.00,,,0.00,WUHU215HW,2013-02-02 01:19:00,
2013-02-01 19:22:00,25.3,16.8,30.04,SW,225,0.0,0.0,70,0.00,,,0.00,WUHU215HW,2013-02-02 01:22:00,
2013-02-01 19:25:00,25.3,16.8,30.04,SW,225,0.0,0.0,70,0.00,,,0.00,WUHU215HW,2013-02-02 01:25:00,
2013-02-01 19:28:00,25.3,16.8,30.04,SW,225,0.0,0.0,70,0.00,,,0.00,WUHU215HW,2013-02-02 01:28:00,
2013-02-01 19:30:00,25.1,16.7,30.04,SSE,158,0.0,0.0,70,0.00,,,0.00,WUHU215HW,2013-02-02 01:30:00,
2013-02-01 19:31:00,25.1,16.7,30.04,SSE,158,0.0,0.0,70,0.00,,,0.00,WUHU215HW,2013-02-02 01:31:00,
2013-02-01 19:33:00,25.1,16.7,30.04,SSE,158,0.0,0.0,70,0.00,,,0.00,WUHU215HW,2013-02-02 01:33:00,
2013-02-01 19:35:00,25.1,16.7,30.04,SW,225,0.0,0.0,70,0.00,,,0.00,WUHU215HW,2013-02-02 01:35:00,
2013-02-01 19:37:00,25.1,16.7,30.04,SSW,203,0.0,0.0,70,0.00,,,0.00,WUHU215HW,2013-02-02 01:37:00,
2013-02-01 19:38:00,25.1,16.7,30.04,SSW,203,0.0,0.0,70,0.00,,,0.00,WUHU215HW,2013-02-02 01:38:00,
2013-02-01 19:41:00,25.1,16.7,30.04,SW,225,0.0,0.0,70,0.00,,,0.00,WUHU215HW,2013-02-02 01:41:00,
2013-02-01 19:43:00,24.9,16.7,30.04,SW,225,0.0,0.0,71,0.00,,,0.00,WUHU215HW,2013-02-02 01:43:00,
2013-02-01 19:45:00,25.1,17.0,30.04,South,180,0.0,0.0,71,0.00,,,0.00,WUHU215HW,2013-02-02 01:45:00,
2013-02-01 19:47:00,25.1,17.0,30.04,South,180,0.0,0.0,71,0.00,,,0.00,WUHU215HW,2013-02-02 01:47:00,
2013-02-01 19:50:00,25.1,17.0,30.04,South,180,0.0,0.0,71,0.00,,,0.00,WUHU215HW,2013-02-02 01:50:00,
2013-02-01 19:52:00,25.1,17.0,30.04,SW,225,0.0,0.0,71,0.00,,,0.00,WUHU215HW,2013-02-02 01:52:00,
2013-02-01 19:54:00,25.1,17.0,30.04,South,180,0.0,0.0,71,0.00,,,0.00,WUHU215HW,2013-02-02 01:54:00,
2013-02-01 19:55:00,25.1,17.0,30.04,South,180,0.0,0.0,71,0.00,,,0.00,WUHU215HW,2013-02-02 01:55:00,
2013-02-01 19:59:00,25.3,17.1,30.04,South,180,0.0,0.0,71,0.00,,,0.00,WUHU215HW,2013-02-02 01:59:00,
2013-02-01 20:00:00,25.3,17.1,30.04,SSW,203,0.0,0.0,71,0.00,,,0.00,WUHU215HW,2013-02-02 02:00:00,
2013-02-01 20:01:00,25.3,17.1,30.04,SSW,203,0.0,0.0,71,0.00,,,0.00,WUHU215HW,2013-02-02 02:01:00,
2013-02-01 20:02:00,25.3,17.1,30.04,SSW,203,0.0,0.0,71,0.00,,,0.00,WUHU215HW,2013-02-02 02:02:00,
2013-02-01 20:04:00,25.3,17.1,30.04,SW,225,0.0,0.0,71,0.00,,,0.00,WUHU215HW,2013-02-02 02:04:00,
2013-02-01 20:07:00,25.5,17.3,30.04,SSW,203,0.0,0.0,71,0.00,,,0.00,WUHU215HW,2013-02-02 02:07:00,
2013-02-01 20:08:00,25.5,17.3,30.04,SSW,203,0.0,0.0,71,0.00,,,0.00,WUHU215HW,2013-02-02 02:08:00,
2013-02-01 20:09:00,25.5,17.3,30.04,SW,225,0.0,0.0,71,0.00,,,0.00,WUHU215HW,2013-02-02 02:09:00,
2013-02-01 20:14:00,25.5,17.3,30.04,SW,225,0.0,0.0,71,0.00,,,0.00,WUHU215HW,2013-02-02 02:14:00,
2013-02-01 20:16:00,25.5,17.3,30.04,SW,225,0.0,0.0,71,0.00,,,0.00,WUHU215HW,2013-02-02 02:16:00,
2013-02-01 20:19:00,25.5,17.3,30.04,SSW,203,0.0,0.0,71,0.00,,,0.00,WUHU215HW,2013-02-02 02:19:00,
2013-02-01 20:20:00,25.5,17.3,30.04,SSW,203,0.0,0.0,71,0.00,,,0.00,WUHU215HW,2013-02-02 02:20:00,
2013-02-01 20:21:00,25.5,17.3,30.04,South,180,0.0,0.0,71,0.00,,,0.00,WUHU215HW,2013-02-02 02:21:00,
2013-02-01 20:25:00,25.5,17.3,30.04,SSW,203,0.0,0.0,71,0.00,,,0.00,WUHU215HW,2013-02-02 02:25:00,
2013-02-01 20:26:00,25.5,17.3,30.04,SW,225,0.0,0.0,71,0.00,,,0.00,WUHU215HW,2013-02-02 02:26:00,
2013-02-01 20:27:00,25.5,17.3,30.04,SW,225,0.0,0.0,71,0.00,,,0.00,WUHU215HW,2013-02-02 02:27:00,
2013-02-01 20:31:00,25.5,17.3,30.04,SSW,203,0.0,0.0,71,0.00,,,0.00,WUHU215HW,2013-02-02 02:31:00,
2013-02-01 20:32:00,25.5,17.3,30.04,WSW,248,0.0,0.0,71,0.00,,,0.00,WUHU215HW,2013-02-02 02:32:00,
2013-02-01 20:33:00,25.5,17.3,30.04,WSW,248,0.0,0.0,71,0.00,,,0.00,WUHU215HW,2013-02-02 02:33:00,
2013-02-01 20:34:00,25.5,17.3,30.04,SW,225,0.0,0.0,71,0.00,,,0.00,WUHU215HW,2013-02-02 02:34:00,
2013-02-01 20:38:00,25.5,17.3,30.04,SW,225,0.0,0.0,71,0.00,,,0.00,WUHU215HW,2013-02-02 02:38:00,
2013-02-01 20:42:00,25.5,17.3,30.04,SW,225,0.0,0.0,71,0.00,,,0.00,WUHU215HW,2013-02-02 02:42:00,
2013-02-01 20:43:00,25.5,17.3,30.04,SW,225,0.0,0.0,71,0.00,,,0.00,WUHU215HW,2013-02-02 02:43:00,
2013-02-01 20:47:00,25.5,17.3,30.04,SW,225,0.0,0.0,71,0.00,,,0.00,WUHU215HW,2013-02-02 02:47:00,
2013-02-01 20:48:00,25.5,17.3,30.04,SW,225,0.0,0.0,71,0.00,,,0.00,WUHU215HW,2013-02-02 02:48:00,
2013-02-01 20:53:00,25.5,17.3,30.04,SSW,203,0.0,0.0,71,0.00,,,0.00,WUHU215HW,2013-02-02 02:53:00,
2013-02-01 20:54:00,25.5,17.3,30.04,SSW,203,0.0,0.0,71,0.00,,,0.00,WUHU215HW,2013-02-02 02:54:00,
2013-02-01 20:56:00,25.5,17.3,30.04,SW,225,0.0,0.0,71,0.00,,,0.00,WUHU215HW,2013-02-02 02:56:00,
2013-02-01 20:59:00,25.5,17.3,30.04,SW,225,0.0,0.0,71,0.00,,,0.00,WUHU215HW,2013-02-02 02:59:00,
2013-02-01 21:02:00,25.7,17.5,30.04,SW,225,0.0,0.0,71,0.00,,,0.00,WUHU215HW,2013-02-02 03:02:00,
2013-02-01 21:03:00,25.7,17.5,30.04,SW,225,0.0,0.0,71,0.00,,,0.00,WUHU215HW,2013-02-02 03:03:00,
2013-02-01 21:04:00,25.7,17.5,30.04,SW,225,0.0,0.0,71,0.00,,,0.00,WUHU215HW,2013-02-02 03:04:00,
2013-02-01 21:06:00,25.7,17.5,30.04,SW,225,0.0,0.0,71,0.00,,,0.00,WUHU215HW,2013-02-02 03:06:00,
2013-02-01 21:08:00,25.7,17.5,30.04,WSW,248,0.0,0.0,71,0.00,,,0.00,WUHU215HW,2013-02-02 03:08:00,
2013-02-01 21:10:00,25.7,17.5,30.04,WSW,248,0.0,0.0,72,0.00,,,0.00,WUHU215HW,2013-02-02 03:10:00,
2013-02-01 21:13:00,25.8,17.5,30.04,SSW,203,0.0,0.0,72,0.00,,,0.00,WUHU215HW,2013-02-02 03:13:00,
2013-02-01 21:15:00,25.8,18.0,30.04,SSW,203,0.0,0.0,72,0.00,,,0.00,WUHU215HW,2013-02-02 03:15:00,
2013-02-01 21:17:00,25.8,18.0,30.04,SW,225,0.0,0.0,72,0.00,,,0.00,WUHU215HW,2013-02-02 03:17:00,
2013-02-01 21:19:00,25.8,18.0,30.04,SW,225,0.0,0.0,72,0.00,,,0.00,WUHU215HW,2013-02-02 03:19:00,
2013-02-01 21:23:00,26.0,18.2,30.04,WSW,248,0.0,0.0,72,0.00,,,0.00,WUHU215HW,2013-02-02 03:23:00,
2013-02-01 21:25:00,26.0,18.2,30.04,WSW,248,0.0,0.0,72,0.00,,,0.00,WUHU215HW,2013-02-02 03:25:00,
2013-02-01 21:26:00,26.0,18.2,30.04,SW,225,0.0,0.0,72,0.00,,,0.00,WUHU215HW,2013-02-02 03:26:00,
2013-02-01 21:30:00,26.0,18.2,30.04,SW,225,0.0,0.0,72,0.00,,,0.00,WUHU215HW,2013-02-02 03:30:00,
2013-02-01 21:34:00,26.2,18.2,30.04,SSW,203,0.0,0.0,72,0.00,,,0.00,WUHU215HW,2013-02-02 03:34:00,
2013-02-01 21:35:00,26.2,18.2,30.04,SSW,203,0.0,0.0,72,0.00,,,0.00,WUHU215HW,2013-02-02 03:35:00,
2013-02-01 21:39:00,26.2,18.2,30.04,SW,225,0.0,0.0,72,0.00,,,0.00,WUHU215HW,2013-02-02 03:39:00,
2013-02-01 21:40:00,26.2,18.2,30.04,SW,225,0.0,0.0,72,0.00,,,0.00,WUHU215HW,2013-02-02 03:40:00,
2013-02-01 21:41:00,26.2,18.3,30.04,SW,225,0.0,0.0,72,0.00,,,0.00,WUHU215HW,2013-02-02 03:41:00,
2013-02-01 21:42:00,26.2,18.3,30.04,SW,225,0.0,0.0,72,0.00,,,0.00,WUHU215HW,2013-02-02 03:42:00,
2013-02-01 21:46:00,26.2,18.3,30.04,SW,225,0.0,0.0,72,0.00,,,0.00,WUHU215HW,2013-02-02 03:46:00,
2013-02-01 21:49:00,26.2,18.3,30.04,SSW,203,0.0,0.0,72,0.00,,,0.00,WUHU215HW,2013-02-02 03:49:00,
2013-02-01 21:50:00,26.2,18.3,30.04,SSW,203,0.0,0.0,72,0.00,,,0.00,WUHU215HW,2013-02-02 03:50:00,
2013-02-01 21:51:00,26.2,18.3,30.04,SW,225,0.0,0.0,72,0.00,,,0.00,WUHU215HW,2013-02-02 03:51:00,
2013-02-01 21:52:00,26.2,18.3,30.04,SW,225,0.0,0.0,72,0.00,,,0.00,WUHU215HW,2013-02-02 03:52:00,
2013-02-01 21:55:00,26.0,18.2,30.04,SW,225,0.0,0.0,72,0.00,,,0.00,WUHU215HW,2013-02-02 03:55:00,
2013-02-01 21:58:00,26.0,18.2,30.04,SW,225,0.0,0.0,72,0.00,,,0.00,WUHU215HW,2013-02-02 03:58:00,
2013-02-01 22:00:00,26.0,18.2,30.04,SSW,203,0.0,0.0,72,0.00,,,0.00,WUHU215HW,2013-02-02 04:00:00,
2013-02-01 22:01:00,26.0,18.2,30.04,SSW,203,0.0,0.0,72,0.00,,,0.00,WUHU215HW,2013-02-02 04:01:00,
2013-02-01 22:03:00,26.0,18.2,30.04,WSW,248,0.0,0.0,72,0.00,,,0.00,WUHU215HW,2013-02-02 04:03:00,
2013-02-01 22:06:00,26.0,18.2,30.04,SSW,203,0.0,0.0,72,0.00,,,0.00,WUHU215HW,2013-02-02 04:06:00,
2013-02-01 22:07:00,26.0,18.2,30.04,SSW,203,0.0,0.0,72,0.00,,,0.00,WUHU215HW,2013-02-02 04:07:00,
2013-02-01 22:08:00,25.8,18.0,30.04,SW,225,0.0,0.0,72,0.00,,,0.00,WUHU215HW,2013-02-02 04:08:00,
2013-02-01 22:11:00,26.0,18.2,30.04,SW,225,0.0,0.0,72,0.00,,,0.00,WUHU215HW,2013-02-02 04:11:00,
2013-02-01 22:13:00,26.0,18.2,30.04,SSW,203,0.0,0.0,72,0.00,,,0.00,WUHU215HW,2013-02-02 04:13:00,
2013-02-01 22:14:00,26.0,18.2,30.04,SSW,203,0.0,0.0,72,0.00,,,0.00,WUHU215HW,2013-02-02 04:14:00,
2013-02-01 22:16:00,26.0,18.2,30.04,South,180,0.0,0.0,72,0.00,,,0.00,WUHU215HW,2013-02-02 04:16:00,
2013-02-01 22:21:00,26.0,18.2,30.04,SW,225,0.0,0.0,72,0.00,,,0.00,WUHU215HW,2013-02-02 04:21:00,
2013-02-01 22:22:00,26.0,18.2,30.04,SW,225,0.0,0.0,72,0.00,,,0.00,WUHU215HW,2013-02-02 04:22:00,
2013-02-01 22:25:00,26.0,18.2,30.04,SSW,203,0.0,0.0,72,0.00,,,0.00,WUHU215HW,2013-02-02 04:25:00,
2013-02-01 22:27:00,25.8,18.2,30.04,WSW,248,0.0,0.0,72,0.00,,,0.00,WUHU215HW,2013-02-02 04:27:00,
2013-02-01 22:28:00,25.8,18.2,30.04,WSW,248,0.0,0.0,72,0.00,,,0.00,WUHU215HW,2013-02-02 04:28:00,
2013-02-01 22:29:00,25.8,18.2,30.04,WSW,248,0.0,0.0,72,0.00,,,0.00,WUHU215HW,2013-02-02 04:29:00,
2013-02-01 22:32:00,25.7,17.8,30.04,NE,45,0.0,0.0,72,0.00,,,0.00,WUHU215HW,2013-02-02 04:32:00,
2013-02-01 22:34:00,25.7,17.8,30.04,NE,45,0.0,0.0,72,0.00,,,0.00,WUHU215HW,2013-02-02 04:34:00,
2013-02-01 22:35:00,25.7,17.8,30.04,NE,45,0.0,0.0,72,0.00,,,0.00,WUHU215HW,2013-02-02 04:35:00,
2013-02-01 22:37:00,25.7,18.1,30.04,SSW,203,0.0,0.0,73,0.00,,,0.00,WUHU215HW,2013-02-02 04:37:00,
2013-02-01 22:42:00,25.5,17.9,30.04,SW,225,0.0,0.0,73,0.00,,,0.00,WUHU215HW,2013-02-02 04:42:00,
2013-02-01 22:45:00,25.5,17.9,30.04,SW,225,0.0,0.0,73,0.00,,,0.00,WUHU215HW,2013-02-02 04:45:00,
2013-02-01 22:46:00,25.5,17.9,30.04,SW,225,0.0,0.0,73,0.00,,,0.00,WUHU215HW,2013-02-02 04:46:00,
2013-02-01 22:49:00,25.5,17.9,30.04,SW,225,0.0,0.0,73,0.00,,,0.00,WUHU215HW,2013-02-02 04:49:00,
2013-02-01 22:50:00,25.5,17.9,30.04,SW,225,0.0,0.0,73,0.00,,,0.00,WUHU215HW,2013-02-02 04:50:00,
2013-02-01 22:53:00,25.7,17.9,30.04,SW,225,0.0,0.0,73,0.00,,,0.00,WUHU215HW,2013-02-02 04:53:00,
2013-02-01 22:55:00,25.7,18.5,30.04,SSW,203,0.0,0.0,74,0.00,,,0.00,WUHU215HW,2013-02-02 04:55:00,
2013-02-01 22:58:00,25.7,18.5,30.04,SSW,203,0.0,0.0,74,0.00,,,0.00,WUHU215HW,2013-02-02 04:58:00,
2013-02-01 23:00:00,25.7,18.5,30.04,SW,225,0.0,0.0,74,0.00,,,0.00,WUHU215HW,2013-02-02 05:00:00,
2013-02-01 23:03:00,25.7,18.5,30.04,SW,225,0.0,0.0,74,0.00,,,0.00,WUHU215HW,2013-02-02 05:03:00,
2013-02-01 23:06:00,25.8,18.6,30.04,SW,225,0.0,0.0,74,0.00,,,0.00,WUHU215HW,2013-02-02 05:06:00,
2013-02-01 23:08:00,25.8,18.6,30.04,SW,225,0.0,0.0,74,0.00,,,0.00,WUHU215HW,2013-02-02 05:08:00,
2013-02-01 23:09:00,25.8,18.6,30.04,SW,225,0.0,0.0,74,0.00,,,0.00,WUHU215HW,2013-02-02 05:09:00,
2013-02-01 23:11:00,25.8,18.6,30.04,SW,225,0.0,0.0,74,0.00,,,0.00,WUHU215HW,2013-02-02 05:11:00,
2013-02-01 23:13:00,25.8,18.6,30.04,SSW,203,0.0,0.0,74,0.00,,,0.00,WUHU215HW,2013-02-02 05:13:00,
2013-02-01 23:16:00,25.8,18.6,30.04,SSW,203,0.0,0.0,74,0.00,,,0.00,WUHU215HW,2013-02-02 05:16:00,
2013-02-01 23:19:00,25.8,18.6,30.04,SW,225,0.0,0.0,74,0.00,,,0.00,WUHU215HW,2013-02-02 05:19:00,
2013-02-01 23:22:00,26.0,18.8,30.04,SW,225,0.0,0.0,74,0.00,,,0.00,WUHU215HW,2013-02-02 05:22:00,
2013-02-01 23:24:00,26.0,18.8,30.04,SSW,203,0.0,0.0,74,0.00,,,0.00,WUHU215HW,2013-02-02 05:24:00,
2013-02-01 23:25:00,26.0,18.8,30.04,SSW,203,0.0,0.0,74,0.00,,,0.00,WUHU215HW,2013-02-02 05:25:00,
2013-02-01 23:28:00,26.2,18.8,30.04,SSW,203,0.0,0.0,75,0.00,,,0.00,WUHU215HW,2013-02-02 05:28:00,
2013-02-01 23:31:00,26.2,18.8,30.04,SSW,203,0.0,0.0,75,0.00,,,0.00,WUHU215HW,2013-02-02 05:31:00,
2013-02-01 23:33:00,26.2,19.3,30.04,SSW,203,0.0,0.0,75,0.00,,,0.00,WUHU215HW,2013-02-02 05:33:00,
2013-02-01 23:35:00,26.2,19.3,30.04,SSW,203,0.0,0.0,75,0.00,,,0.00,WUHU215HW,2013-02-02 05:35:00,
2013-02-01 23:36:00,26.4,19.3,30.04,SSW,203,0.0,0.0,75,0.00,,,0.00,WUHU215HW,2013-02-02 05:36:00,
2013-02-01 23:40:00,26.4,19.4,30.04,SW,225,0.0,0.0,75,0.00,,,0.00,WUHU215HW,2013-02-02 05:40:00,
2013-02-01 23:41:00,26.4,19.4,30.04,SW,225,0.0,0.0,75,0.00,,,0.00,WUHU215HW,2013-02-02 05:41:00,
2013-02-01 23:42:00,26.4,19.4,30.04,SW,225,0.0,0.0,75,0.00,,,0.00,WUHU215HW,2013-02-02 05:42:00,
2013-02-01 23:47:00,26.4,19.4,30.04,SSW,203,0.0,0.0,75,0.00,,,0.00,WUHU215HW,2013-02-02 05:47:00,
2013-02-01 23:48:00,26.4,19.4,30.04,SSW,203,0.0,0.0,75,0.00,,,0.00,WUHU215HW,2013-02-02 05:48:00,
2013-02-01 23:51:00,26.0,19.1,30.04,SSW,203,0.0,0.0,75,0.00,,,0.00,WUHU215HW,2013-02-02 05:51:00,
2013-02-01 23:53:00,25.8,18.9,30.04,SSW,203,0.0,0.0,75,0.00,,,0.00,WUHU215HW,2013-02-02 05:53:00,
2013-02-01 23:55:00,25.8,18.9,30.04,SSW,203,0.0,0.0,75,0.00,,,0.00,WUHU215HW,2013-02-02 05:55:00,
2013-02-01 23:58:00,25.8,18.9,30.04,SSW,203,0.0,0.0,75,0.00,,,0.00,WUHU215HW,2013-02-02 05:58:00,